Time,TemperatureF,DewpointF,PressureIn,WindDirection,WindDirectionDegrees,WindSpeedMPH,WindSpeedGustMPH,Humidity,HourlyPrecipIn,Conditions,Clouds,dailyrainin,SolarRadiationWatts/m^2,SoftwareType,DateUTC
2013-05-21 00:01:00,63.8,62.0,29.58,SSE,150,3.0,4.0,94,0.52,,,0.01,0,Wunderground v.1.15,2013-05-21 05:01:00,
2013-05-21 00:05:00,63.9,62.1,29.59,ESE,114,3.0,4.0,94,0.13,,,0.01,0,Wunderground v.1.15,2013-05-21 05:05:00,
2013-05-21 00:06:00,63.9,62.1,29.59,SE,130,3.0,4.0,94,0.10,,,0.01,0,Wunderground v.1.15,2013-05-21 05:06:00,
2013-05-21 00:07:00,63.9,62.1,29.59,SE,130,3.0,4.0,94,0.09,,,0.01,0,Wunderground v.1.15,2013-05-21 05:07:00,
2013-05-21 00:08:00,63.9,62.1,29.59,SE,130,2.0,4.0,94,0.07,,,0.01,0,Wunderground v.1.15,2013-05-21 05:08:00,
2013-05-21 00:12:00,64.0,62.2,29.59,NNW,333,2.0,2.0,94,0.05,,,0.01,0,Wunderground v.1.15,2013-05-21 05:12:00,
2013-05-21 00:13:00,64.0,62.2,29.59,NNW,333,2.0,2.0,94,0.05,,,0.01,0,Wunderground v.1.15,2013-05-21 05:13:00,
2013-05-21 00:14:00,64.0,62.2,29.59,NNW,333,1.0,2.0,94,0.04,,,0.01,0,Wunderground v.1.15,2013-05-21 05:14:00,
2013-05-21 00:15:00,64.0,62.2,29.59,NNW,333,1.0,2.0,94,0.04,,,0.01,0,Wunderground v.1.15,2013-05-21 05:15:00,
2013-05-21 00:19:00,64.1,62.3,29.59,North,360,2.0,4.0,94,0.00,,,0.01,0,Wunderground v.1.15,2013-05-21 05:19:00,
2013-05-21 00:20:00,64.1,62.3,29.59,North,360,2.0,2.0,94,0.00,,,0.01,0,Wunderground v.1.15,2013-05-21 05:20:00,
2013-05-21 00:21:00,64.1,62.3,29.59,North,360,1.0,2.0,94,0.00,,,0.01,0,Wunderground v.1.15,2013-05-21 05:21:00,
2013-05-21 00:22:00,64.1,62.3,29.59,North,360,1.0,2.0,94,0.00,,,0.01,0,Wunderground v.1.15,2013-05-21 05:22:00,
2013-05-21 00:24:00,64.1,62.3,29.59,North,360,1.0,2.0,94,0.00,,,0.01,0,Wunderground v.1.15,2013-05-21 05:24:00,
2013-05-21 00:26:00,64.0,62.2,29.59,North,360,1.0,2.0,94,0.00,,,0.01,0,Wunderground v.1.15,2013-05-21 05:26:00,
2013-05-21 00:27:00,64.0,62.2,29.59,North,355,1.0,2.0,94,0.00,,,0.01,0,Wunderground v.1.15,2013-05-21 05:27:00,
2013-05-21 00:28:00,63.9,62.1,29.59,North,355,1.0,2.0,94,0.00,,,0.01,0,Wunderground v.1.15,2013-05-21 05:28:00,
2013-05-21 00:30:00,63.9,62.1,29.60,WNW,292,1.0,1.0,94,0.00,,,0.01,0,Wunderground v.1.15,2013-05-21 05:30:00,
2013-05-21 00:31:00,63.9,62.1,29.60,West,271,1.0,2.0,94,0.00,,,0.01,0,Wunderground v.1.15,2013-05-21 05:31:00,
2013-05-21 00:34:00,63.9,62.1,29.62,SSW,202,2.0,6.0,94,0.00,,,0.01,0,Wunderground v.1.15,2013-05-21 05:34:00,
2013-05-21 00:35:00,63.9,62.1,29.62,South,188,2.0,6.0,94,0.00,,,0.01,0,Wunderground v.1.15,2013-05-21 05:35:00,
2013-05-21 00:36:00,63.9,62.1,29.62,South,178,2.0,6.0,94,0.00,,,0.01,0,Wunderground v.1.15,2013-05-21 05:36:00,
2013-05-21 00:39:00,63.8,62.0,29.62,WSW,242,3.0,8.0,94,0.00,,,0.01,0,Wunderground v.1.15,2013-05-21 05:39:00,
2013-05-21 00:40:00,63.8,62.0,29.62,SSW,211,4.0,4.0,94,0.00,,,0.01,0,Wunderground v.1.15,2013-05-21 05:40:00,
2013-05-21 00:42:00,63.7,61.6,29.62,West,260,4.0,15.0,93,0.00,,,0.01,0,Wunderground v.1.15,2013-05-21 05:42:00,
2013-05-21 00:45:00,63.6,61.5,29.62,South,186,5.0,15.0,93,0.00,,,0.02,0,Wunderground v.1.15,2013-05-21 05:45:00,
2013-05-21 00:46:00,63.5,61.4,29.63,SW,215,5.0,15.0,93,2.42,,,0.04,0,Wunderground v.1.15,2013-05-21 05:46:00,
2013-05-21 00:47:00,63.4,61.3,29.63,SW,221,6.0,15.0,93,0.81,,,0.07,0,Wunderground v.1.15,2013-05-21 05:47:00,
2013-05-21 00:48:00,63.4,61.3,29.63,SSW,213,6.0,15.0,93,0.51,,,0.08,0,Wunderground v.1.15,2013-05-21 05:48:00,
2013-05-21 00:52:00,63.1,61.0,29.63,SW,219,5.0,6.0,93,0.12,,,0.08,0,Wunderground v.1.15,2013-05-21 05:52:00,
2013-05-21 00:54:00,63.0,60.9,29.63,SW,219,5.0,6.0,93,0.09,,,0.08,0,Wunderground v.1.15,2013-05-21 05:54:00,
2013-05-21 00:56:00,63.0,60.9,29.63,WSW,239,3.0,6.0,93,0.07,,,0.08,0,Wunderground v.1.15,2013-05-21 05:56:00,
2013-05-21 00:58:00,62.9,60.8,29.63,WSW,248,2.0,6.0,93,0.05,,,0.08,0,Wunderground v.1.15,2013-05-21 05:58:00,
2013-05-21 00:59:00,62.9,60.8,29.63,WSW,251,2.0,6.0,93,0.05,,,0.08,0,Wunderground v.1.15,2013-05-21 05:59:00,
2013-05-21 01:02:00,62.8,60.7,29.63,NW,325,2.0,3.0,93,0.04,,,0.08,0,Wunderground v.1.15,2013-05-21 06:02:00,
2013-05-21 01:03:00,62.7,60.6,29.63,NW,325,1.0,3.0,93,0.04,,,0.08,0,Wunderground v.1.15,2013-05-21 06:03:00,
2013-05-21 01:06:00,62.5,60.4,29.64,NW,311,2.0,3.0,93,0.00,,,0.08,0,Wunderground v.1.15,2013-05-21 06:06:00,
2013-05-21 01:07:00,62.4,60.3,29.64,SSW,212,1.0,3.0,93,0.00,,,0.08,0,Wunderground v.1.15,2013-05-21 06:07:00,
2013-05-21 01:09:00,62.3,60.2,29.64,SSW,207,1.0,3.0,93,0.97,,,0.13,0,Wunderground v.1.15,2013-05-21 06:09:00,
2013-05-21 01:11:00,62.2,60.2,29.64,SSW,207,1.0,1.0,93,2.09,,,0.17,0,Wunderground v.1.15,2013-05-21 06:11:00,
2013-05-21 01:12:00,62.1,60.1,29.64,SSW,202,1.0,2.0,93,0.67,,,0.18,0,Wunderground v.1.15,2013-05-21 06:12:00,
2013-05-21 01:13:00,62.0,60.0,29.64,South,190,1.0,2.0,93,0.26,,,0.18,0,Wunderground v.1.15,2013-05-21 06:13:00,
2013-05-21 01:17:00,61.8,59.8,29.64,SSE,154,2.0,5.0,93,0.44,,,0.20,0,Wunderground v.1.15,2013-05-21 06:17:00,
2013-05-21 01:18:00,61.8,59.8,29.63,SSE,154,2.0,5.0,93,0.52,,,0.21,0,Wunderground v.1.15,2013-05-21 06:18:00,
2013-05-21 01:19:00,61.8,59.8,29.63,SSE,154,2.0,5.0,93,0.52,,,0.21,0,Wunderground v.1.15,2013-05-21 06:19:00,
2013-05-21 01:20:00,61.8,59.8,29.64,SSE,154,2.0,2.0,93,0.30,,,0.21,0,Wunderground v.1.15,2013-05-21 06:20:00,
2013-05-21 01:25:00,61.8,59.8,29.64,SSE,154,1.0,2.0,93,0.08,,,0.21,0,Wunderground v.1.15,2013-05-21 06:25:00,
2013-05-21 01:26:00,61.8,59.8,29.64,SSE,154,1.0,2.0,93,0.08,,,0.21,0,Wunderground v.1.15,2013-05-21 06:26:00,
2013-05-21 01:27:00,61.8,59.8,29.64,SSE,154,1.0,2.0,93,0.07,,,0.21,0,Wunderground v.1.15,2013-05-21 06:27:00,
2013-05-21 01:31:00,61.7,59.7,29.64,SSE,154,0.0,0.0,93,0.05,,,0.21,0,Wunderground v.1.15,2013-05-21 06:31:00,
2013-05-21 01:32:00,61.7,59.7,29.64,SSE,154,0.0,0.0,93,0.04,,,0.21,0,Wunderground v.1.15,2013-05-21 06:32:00,
2013-05-21 01:33:00,61.7,59.7,29.64,SSE,154,0.0,0.0,93,0.04,,,0.21,0,Wunderground v.1.15,2013-05-21 06:33:00,
2013-05-21 01:34:00,61.7,59.7,29.64,SSE,154,0.0,0.0,93,0.04,,,0.21,0,Wunderground v.1.15,2013-05-21 06:34:00,
2013-05-21 01:37:00,61.7,59.7,29.64,SSE,154,0.0,0.0,93,0.00,,,0.21,0,Wunderground v.1.15,2013-05-21 06:37:00,
2013-05-21 01:39:00,61.6,59.6,29.64,SSE,154,0.0,0.0,93,0.00,,,0.21,0,Wunderground v.1.15,2013-05-21 06:39:00,
2013-05-21 01:40:00,61.6,59.6,29.63,SSE,154,0.0,0.0,93,0.00,,,0.21,0,Wunderground v.1.15,2013-05-21 06:40:00,
2013-05-21 01:41:00,61.6,59.6,29.63,SSE,154,0.0,0.0,93,0.00,,,0.21,0,Wunderground v.1.15,2013-05-21 06:41:00,
2013-05-21 01:43:00,61.5,59.5,29.63,SSE,154,0.0,0.0,93,0.00,,,0.21,0,Wunderground v.1.15,2013-05-21 06:43:00,
2013-05-21 01:45:00,61.6,59.9,29.62,SSE,154,0.0,0.0,94,0.00,,,0.21,0,Wunderground v.1.15,2013-05-21 06:45:00,
2013-05-21 01:46:00,61.6,59.9,29.63,SSE,154,0.0,1.0,94,0.00,,,0.21,0,Wunderground v.1.15,2013-05-21 06:46:00,
2013-05-21 01:50:00,61.6,59.9,29.63,SSE,154,0.0,1.0,94,0.00,,,0.21,0,Wunderground v.1.15,2013-05-21 06:50:00,
2013-05-21 01:51:00,61.5,59.5,29.63,SSE,154,0.0,1.0,93,0.00,,,0.21,0,Wunderground v.1.15,2013-05-21 06:51:00,
2013-05-21 01:52:00,61.5,59.5,29.63,SSE,154,0.0,1.0,93,0.00,,,0.21,0,Wunderground v.1.15,2013-05-21 06:52:00,
2013-05-21 01:56:00,61.4,59.7,29.63,SSE,154,0.0,4.0,94,0.00,,,0.22,0,Wunderground v.1.15,2013-05-21 06:56:00,
2013-05-21 01:57:00,61.4,59.7,29.64,SSE,154,1.0,4.0,94,0.00,,,0.22,0,Wunderground v.1.15,2013-05-21 06:57:00,
2013-05-21 01:58:00,61.4,59.7,29.64,SSE,154,1.0,4.0,94,0.00,,,0.22,0,Wunderground v.1.15,2013-05-21 06:58:00,
2013-05-21 01:59:00,61.4,59.7,29.64,SSE,154,1.0,4.0,94,0.00,,,0.22,0,Wunderground v.1.15,2013-05-21 06:59:00,
2013-05-21 02:01:00,61.3,59.6,29.63,SSE,154,1.0,1.0,94,0.00,,,0.22,0,Wunderground v.1.15,2013-05-21 07:01:00,
2013-05-21 02:03:00,61.3,59.6,29.64,SSE,154,1.0,1.0,94,0.08,,,0.23,0,Wunderground v.1.15,2013-05-21 07:03:00,
2013-05-21 02:04:00,61.3,59.6,29.64,SSE,154,1.0,1.0,94,0.08,,,0.23,0,Wunderground v.1.15,2013-05-21 07:04:00,
2013-05-21 02:06:00,61.3,59.6,29.65,SSE,168,1.0,5.0,94,0.08,,,0.23,0,Wunderground v.1.15,2013-05-21 07:06:00,
2013-05-21 02:09:00,61.2,59.5,29.65,South,175,1.0,5.0,94,0.15,,,0.24,0,Wunderground v.1.15,2013-05-21 07:09:00,
2013-05-21 02:10:00,61.2,59.5,29.64,South,175,1.0,1.0,94,0.15,,,0.24,0,Wunderground v.1.15,2013-05-21 07:10:00,
2013-05-21 02:11:00,61.2,59.5,29.64,South,175,1.0,1.0,94,0.13,,,0.24,0,Wunderground v.1.15,2013-05-21 07:11:00,
2013-05-21 02:12:00,61.2,59.5,29.64,South,175,1.0,1.0,94,0.13,,,0.25,0,Wunderground v.1.15,2013-05-21 07:12:00,
2013-05-21 02:13:00,61.2,59.5,29.64,South,175,1.0,1.0,94,0.13,,,0.25,0,Wunderground v.1.15,2013-05-21 07:13:00,
2013-05-21 02:14:00,61.1,59.4,29.64,South,175,1.0,1.0,94,0.13,,,0.25,0,Wunderground v.1.15,2013-05-21 07:14:00,
2013-05-21 02:16:00,61.1,59.4,29.64,South,175,1.0,1.0,94,0.18,,,0.26,0,Wunderground v.1.15,2013-05-21 07:16:00,
2013-05-21 02:19:00,61.1,59.4,29.63,South,175,0.0,1.0,94,0.14,,,0.26,0,Wunderground v.1.15,2013-05-21 07:19:00,
2013-05-21 02:20:00,61.1,59.4,29.63,South,175,0.0,0.0,94,0.12,,,0.27,0,Wunderground v.1.15,2013-05-21 07:20:00,
2013-05-21 02:21:00,61.1,59.4,29.63,South,175,0.0,0.0,94,0.12,,,0.27,0,Wunderground v.1.15,2013-05-21 07:21:00,
2013-05-21 02:22:00,61.1,59.4,29.63,South,175,0.0,0.0,94,0.12,,,0.27,0,Wunderground v.1.15,2013-05-21 07:22:00,
2013-05-21 02:25:00,61.1,59.4,29.63,South,175,0.0,0.0,94,0.12,,,0.28,0,Wunderground v.1.15,2013-05-21 07:25:00,
2013-05-21 02:26:00,61.1,59.4,29.62,South,175,0.0,0.0,94,0.12,,,0.28,0,Wunderground v.1.15,2013-05-21 07:26:00,
2013-05-21 02:27:00,61.1,59.4,29.62,South,175,0.0,0.0,94,0.12,,,0.28,0,Wunderground v.1.15,2013-05-21 07:27:00,
2013-05-21 02:28:00,61.1,59.4,29.61,South,175,0.0,1.0,94,0.17,,,0.29,0,Wunderground v.1.15,2013-05-21 07:28:00,
2013-05-21 02:31:00,61.1,59.4,29.60,South,175,1.0,4.0,94,0.28,,,0.30,0,Wunderground v.1.15,2013-05-21 07:31:00,
2013-05-21 02:32:00,61.1,59.4,29.59,South,175,1.0,4.0,94,0.28,,,0.30,0,Wunderground v.1.15,2013-05-21 07:32:00,
2013-05-21 02:34:00,61.1,59.4,29.58,South,175,1.0,4.0,94,0.16,,,0.30,0,Wunderground v.1.15,2013-05-21 07:34:00,
2013-05-21 02:35:00,61.1,59.4,29.58,South,175,1.0,4.0,94,0.16,,,0.31,0,Wunderground v.1.15,2013-05-21 07:35:00,
2013-05-21 02:40:00,61.1,59.4,29.57,South,175,2.0,2.0,94,0.10,,,0.31,0,Wunderground v.1.15,2013-05-21 07:40:00,
2013-05-21 02:41:00,61.1,59.4,29.57,South,175,2.0,2.0,94,0.08,,,0.31,0,Wunderground v.1.15,2013-05-21 07:41:00,
2013-05-21 02:42:00,61.1,59.4,29.57,South,175,2.0,2.0,94,0.07,,,0.31,0,Wunderground v.1.15,2013-05-21 07:42:00,
2013-05-21 02:45:00,61.1,59.4,29.57,ENE,59,1.0,4.0,94,0.05,,,0.31,0,Wunderground v.1.15,2013-05-21 07:45:00,
2013-05-21 02:48:00,61.0,59.3,29.57,ENE,74,1.0,4.0,94,0.04,,,0.31,0,Wunderground v.1.15,2013-05-21 07:48:00,
2013-05-21 02:49:00,60.9,59.2,29.57,ENE,74,1.0,4.0,94,0.04,,,0.31,0,Wunderground v.1.15,2013-05-21 07:49:00,
2013-05-21 02:50:00,60.9,59.2,29.57,ENE,74,1.0,1.0,94,0.04,,,0.31,0,Wunderground v.1.15,2013-05-21 07:50:00,
2013-05-21 02:52:00,60.9,59.2,29.59,SSE,162,1.0,1.0,94,0.00,,,0.31,0,Wunderground v.1.15,2013-05-21 07:52:00,
2013-05-21 02:53:00,60.9,59.2,29.59,SSE,162,1.0,1.0,94,0.00,,,0.31,0,Wunderground v.1.15,2013-05-21 07:53:00,
2013-05-21 02:57:00,60.8,59.1,29.60,SSE,162,0.0,1.0,94,0.00,,,0.31,0,Wunderground v.1.15,2013-05-21 07:57:00,
2013-05-21 02:58:00,60.8,59.1,29.60,SSE,162,1.0,1.0,94,0.00,,,0.31,0,Wunderground v.1.15,2013-05-21 07:58:00,
2013-05-21 02:59:00,60.7,59.0,29.60,SSE,165,1.0,2.0,94,0.00,,,0.31,0,Wunderground v.1.15,2013-05-21 07:59:00,
2013-05-21 03:00:00,60.7,59.0,29.60,SSE,165,1.0,2.0,94,0.00,,,0.31,0,Wunderground v.1.15,2013-05-21 08:00:00,
2013-05-21 03:01:00,60.7,59.3,29.59,SSE,165,1.0,2.0,95,0.00,,,0.31,0,Wunderground v.1.15,2013-05-21 08:01:00,
2013-05-21 03:05:00,60.7,59.0,29.59,SSE,165,1.0,2.0,94,0.00,,,0.31,0,Wunderground v.1.15,2013-05-21 08:05:00,
2013-05-21 03:06:00,60.7,59.0,29.59,SSE,165,1.0,2.0,94,0.00,,,0.31,0,Wunderground v.1.15,2013-05-21 08:06:00,
2013-05-21 03:07:00,60.7,59.0,29.59,SSE,165,1.0,2.0,94,0.00,,,0.31,0,Wunderground v.1.15,2013-05-21 08:07:00,
2013-05-21 03:11:00,60.6,58.9,29.59,SW,224,1.0,1.0,94,0.00,,,0.31,0,Wunderground v.1.15,2013-05-21 08:11:00,
2013-05-21 03:12:00,60.7,59.3,29.59,SW,224,1.0,1.0,95,0.00,,,0.31,0,Wunderground v.1.15,2013-05-21 08:12:00,
2013-05-21 03:17:00,60.7,59.3,29.59,SW,224,1.0,2.0,95,0.00,,,0.31,0,Wunderground v.1.15,2013-05-21 08:17:00,
2013-05-21 03:18:00,60.6,59.2,29.59,SW,224,0.0,2.0,95,0.00,,,0.31,0,Wunderground v.1.15,2013-05-21 08:18:00,
2013-05-21 03:20:00,60.6,59.2,29.59,SW,224,0.0,0.0,95,0.00,,,0.31,0,Wunderground v.1.15,2013-05-21 08:20:00,
2013-05-21 03:21:00,60.6,59.2,29.59,SW,224,0.0,0.0,95,0.00,,,0.31,0,Wunderground v.1.15,2013-05-21 08:21:00,
2013-05-21 03:24:00,60.6,59.2,29.59,SW,224,0.0,0.0,95,0.00,,,0.31,0,Wunderground v.1.15,2013-05-21 08:24:00,
2013-05-21 03:25:00,60.6,59.2,29.59,SW,224,0.0,0.0,95,0.00,,,0.31,0,Wunderground v.1.15,2013-05-21 08:25:00,
2013-05-21 03:29:00,60.5,59.1,29.59,SW,224,0.0,0.0,95,0.00,,,0.31,0,Wunderground v.1.15,2013-05-21 08:29:00,
2013-05-21 03:30:00,60.5,59.1,29.59,SW,224,0.0,0.0,95,0.00,,,0.31,0,Wunderground v.1.15,2013-05-21 08:30:00,
2013-05-21 03:31:00,60.5,59.1,29.59,SW,224,0.0,1.0,95,0.00,,,0.31,0,Wunderground v.1.15,2013-05-21 08:31:00,
2013-05-21 03:33:00,60.5,59.1,29.59,SW,224,0.0,1.0,95,0.00,,,0.31,0,Wunderground v.1.15,2013-05-21 08:33:00,
2013-05-21 03:38:00,60.5,59.1,29.59,SW,224,0.0,1.0,95,0.00,,,0.31,0,Wunderground v.1.15,2013-05-21 08:38:00,
2013-05-21 03:39:00,60.5,59.1,29.59,SW,224,0.0,1.0,95,0.00,,,0.31,0,Wunderground v.1.15,2013-05-21 08:39:00,
2013-05-21 03:42:00,60.4,59.0,29.59,SW,224,0.0,0.0,95,0.00,,,0.31,0,Wunderground v.1.15,2013-05-21 08:42:00,
2013-05-21 03:43:00,60.4,59.0,29.59,SW,224,0.0,0.0,95,0.00,,,0.31,0,Wunderground v.1.15,2013-05-21 08:43:00,
2013-05-21 03:44:00,60.4,59.0,29.59,SW,224,0.0,0.0,95,0.00,,,0.31,0,Wunderground v.1.15,2013-05-21 08:44:00,
2013-05-21 03:48:00,60.3,58.9,29.60,SW,224,0.0,1.0,95,0.00,,,0.31,0,Wunderground v.1.15,2013-05-21 08:48:00,
2013-05-21 03:49:00,60.3,58.9,29.60,SW,224,0.0,1.0,95,0.00,,,0.31,0,Wunderground v.1.15,2013-05-21 08:49:00,
2013-05-21 03:50:00,60.3,58.9,29.60,SW,224,0.0,0.0,95,0.00,,,0.31,0,Wunderground v.1.15,2013-05-21 08:50:00,
2013-05-21 03:51:00,60.3,58.9,29.60,SW,224,0.0,0.0,95,0.00,,,0.31,0,Wunderground v.1.15,2013-05-21 08:51:00,
2013-05-21 03:52:00,60.2,58.8,29.60,SW,224,0.0,0.0,95,0.00,,,0.31,0,Wunderground v.1.15,2013-05-21 08:52:00,
2013-05-21 03:54:00,60.2,58.8,29.60,SW,224,0.0,0.0,95,0.00,,,0.31,0,Wunderground v.1.15,2013-05-21 08:54:00,
2013-05-21 03:56:00,60.1,58.7,29.60,SW,224,0.0,1.0,95,0.00,,,0.31,0,Wunderground v.1.15,2013-05-21 08:56:00,
2013-05-21 03:57:00,60.1,58.7,29.60,SW,224,0.0,1.0,95,0.00,,,0.31,0,Wunderground v.1.15,2013-05-21 08:57:00,
2013-05-21 03:58:00,60.1,58.7,29.60,SW,223,0.0,1.0,95,0.00,,,0.31,0,Wunderground v.1.15,2013-05-21 08:58:00,
2013-05-21 04:00:00,60.0,58.6,29.60,SW,223,0.0,0.0,95,0.00,,,0.31,0,Wunderground v.1.15,2013-05-21 09:00:00,
2013-05-21 04:01:00,60.0,58.6,29.60,SW,223,0.0,0.0,95,0.00,,,0.31,0,Wunderground v.1.15,2013-05-21 09:01:00,
2013-05-21 04:02:00,60.0,58.6,29.60,SW,223,0.0,0.0,95,0.00,,,0.31,0,Wunderground v.1.15,2013-05-21 09:02:00,
2013-05-21 04:04:00,59.9,58.5,29.60,SW,223,0.0,0.0,95,0.00,,,0.31,0,Wunderground v.1.15,2013-05-21 09:04:00,
2013-05-21 04:05:00,59.9,58.5,29.60,SW,223,0.0,0.0,95,0.00,,,0.31,0,Wunderground v.1.15,2013-05-21 09:05:00,
2013-05-21 04:06:00,59.9,58.5,29.60,SW,223,0.0,0.0,95,0.00,,,0.31,0,Wunderground v.1.15,2013-05-21 09:06:00,
2013-05-21 04:07:00,59.9,58.5,29.60,SW,223,0.0,0.0,95,0.00,,,0.31,0,Wunderground v.1.15,2013-05-21 09:07:00,
2013-05-21 04:09:00,59.9,58.5,29.60,SW,223,0.0,0.0,95,0.00,,,0.31,0,Wunderground v.1.15,2013-05-21 09:09:00,
2013-05-21 04:10:00,59.8,58.4,29.60,SW,223,0.0,0.0,95,0.00,,,0.31,0,Wunderground v.1.15,2013-05-21 09:10:00,
2013-05-21 04:12:00,59.8,58.4,29.60,SW,223,0.0,0.0,95,0.00,,,0.31,0,Wunderground v.1.15,2013-05-21 09:12:00,
2013-05-21 04:14:00,59.8,58.4,29.60,SW,223,0.0,0.0,95,0.00,,,0.31,0,Wunderground v.1.15,2013-05-21 09:14:00,
2013-05-21 04:17:00,59.8,58.4,29.61,SW,223,0.0,0.0,95,0.00,,,0.31,0,Wunderground v.1.15,2013-05-21 09:17:00,
2013-05-21 04:19:00,59.8,58.4,29.61,SW,223,0.0,0.0,95,0.00,,,0.31,0,Wunderground v.1.15,2013-05-21 09:19:00,
2013-05-21 04:20:00,59.7,58.3,29.61,SW,223,0.0,0.0,95,0.00,,,0.31,0,Wunderground v.1.15,2013-05-21 09:20:00,
2013-05-21 04:22:00,59.7,58.3,29.61,SW,223,0.0,0.0,95,0.00,,,0.31,0,Wunderground v.1.15,2013-05-21 09:22:00,
2013-05-21 04:23:00,59.6,58.2,29.61,SW,223,0.0,0.0,95,0.00,,,0.31,0,Wunderground v.1.15,2013-05-21 09:23:00,
2013-05-21 04:25:00,59.6,58.2,29.61,SW,223,0.0,0.0,95,0.00,,,0.31,0,Wunderground v.1.15,2013-05-21 09:25:00,
2013-05-21 04:26:00,59.6,58.2,29.61,SW,223,0.0,0.0,95,0.00,,,0.31,0,Wunderground v.1.15,2013-05-21 09:26:00,
2013-05-21 04:30:00,59.4,58.0,29.61,SW,223,0.0,0.0,95,0.00,,,0.31,0,Wunderground v.1.15,2013-05-21 09:30:00,
2013-05-21 04:31:00,59.4,58.0,29.61,SW,223,0.0,0.0,95,0.00,,,0.31,0,Wunderground v.1.15,2013-05-21 09:31:00,
2013-05-21 04:32:00,59.4,58.0,29.61,SW,223,0.0,0.0,95,0.00,,,0.31,0,Wunderground v.1.15,2013-05-21 09:32:00,
2013-05-21 04:34:00,59.3,57.9,29.60,SW,223,0.0,0.0,95,0.00,,,0.31,0,Wunderground v.1.15,2013-05-21 09:34:00,
2013-05-21 04:36:00,59.3,57.9,29.61,SW,223,0.0,0.0,95,0.00,,,0.31,0,Wunderground v.1.15,2013-05-21 09:36:00,
2013-05-21 04:38:00,59.1,57.7,29.60,SW,223,0.0,0.0,95,0.00,,,0.31,0,Wunderground v.1.15,2013-05-21 09:38:00,
2013-05-21 04:40:00,59.1,57.7,29.60,SW,223,0.0,0.0,95,0.00,,,0.31,0,Wunderground v.1.15,2013-05-21 09:40:00,
2013-05-21 04:41:00,59.1,57.7,29.60,SW,223,0.0,1.0,95,0.00,,,0.31,0,Wunderground v.1.15,2013-05-21 09:41:00,
2013-05-21 04:42:00,59.0,57.6,29.60,SW,223,0.0,1.0,95,0.00,,,0.31,0,Wunderground v.1.15,2013-05-21 09:42:00,
2013-05-21 04:43:00,59.0,57.6,29.61,SW,223,0.0,1.0,95,0.00,,,0.31,0,Wunderground v.1.15,2013-05-21 09:43:00,
2013-05-21 04:47:00,58.9,57.5,29.61,SW,223,0.0,1.0,95,0.00,,,0.31,0,Wunderground v.1.15,2013-05-21 09:47:00,
2013-05-21 04:49:00,58.8,57.4,29.61,SW,223,0.0,1.0,95,0.00,,,0.31,0,Wunderground v.1.15,2013-05-21 09:49:00,
2013-05-21 04:51:00,58.8,57.4,29.61,SW,223,0.0,0.0,95,0.00,,,0.31,0,Wunderground v.1.15,2013-05-21 09:51:00,
2013-05-21 04:52:00,58.8,57.4,29.61,SW,223,0.0,0.0,95,0.00,,,0.31,0,Wunderground v.1.15,2013-05-21 09:52:00,
2013-05-21 04:53:00,58.7,57.3,29.61,SW,223,0.0,0.0,95,0.00,,,0.31,0,Wunderground v.1.15,2013-05-21 09:53:00,
2013-05-21 04:56:00,58.7,57.3,29.61,SW,223,0.0,0.0,95,0.00,,,0.31,0,Wunderground v.1.15,2013-05-21 09:56:00,
2013-05-21 04:58:00,58.7,57.3,29.61,SW,223,0.0,0.0,95,0.00,,,0.31,0,Wunderground v.1.15,2013-05-21 09:58:00,
2013-05-21 05:01:00,58.6,57.2,29.61,SW,223,0.0,0.0,95,0.00,,,0.31,0,Wunderground v.1.15,2013-05-21 10:01:00,
2013-05-21 05:02:00,58.6,57.2,29.61,SW,223,0.0,0.0,95,0.00,,,0.31,0,Wunderground v.1.15,2013-05-21 10:02:00,
2013-05-21 05:05:00,58.6,57.2,29.61,SW,223,0.0,0.0,95,0.00,,,0.31,0,Wunderground v.1.15,2013-05-21 10:05:00,
2013-05-21 05:06:00,58.6,57.2,29.61,SW,223,0.0,0.0,95,0.00,,,0.31,0,Wunderground v.1.15,2013-05-21 10:06:00,
2013-05-21 05:07:00,58.6,57.2,29.60,SW,223,0.0,0.0,95,0.00,,,0.31,0,Wunderground v.1.15,2013-05-21 10:07:00,
2013-05-21 05:09:00,58.6,57.2,29.60,SW,223,0.0,0.0,95,0.00,,,0.31,0,Wunderground v.1.15,2013-05-21 10:09:00,
2013-05-21 05:13:00,58.5,57.1,29.60,SW,223,0.0,0.0,95,0.00,,,0.31,0,Wunderground v.1.15,2013-05-21 10:13:00,
2013-05-21 05:14:00,58.5,57.1,29.60,SW,223,0.0,0.0,95,0.00,,,0.31,0,Wunderground v.1.15,2013-05-21 10:14:00,
2013-05-21 05:15:00,58.5,57.1,29.60,SW,223,0.0,0.0,95,0.00,,,0.31,0,Wunderground v.1.15,2013-05-21 10:15:00,
2013-05-21 05:16:00,58.5,57.1,29.60,SW,223,0.0,0.0,95,0.00,,,0.31,0,Wunderground v.1.15,2013-05-21 10:16:00,
2013-05-21 05:19:00,58.4,57.0,29.60,SW,223,0.0,0.0,95,0.00,,,0.31,0,Wunderground v.1.15,2013-05-21 10:19:00,
2013-05-21 05:21:00,58.4,57.0,29.60,SW,223,0.0,0.0,95,0.00,,,0.31,0,Wunderground v.1.15,2013-05-21 10:21:00,
2013-05-21 05:22:00,58.4,57.0,29.60,SW,223,0.0,0.0,95,0.00,,,0.31,0,Wunderground v.1.15,2013-05-21 10:22:00,
2013-05-21 05:25:00,58.4,57.0,29.60,SW,223,0.0,0.0,95,0.00,,,0.31,0,Wunderground v.1.15,2013-05-21 10:25:00,
2013-05-21 05:26:00,58.3,56.9,29.60,SW,223,0.0,0.0,95,0.00,,,0.31,0,Wunderground v.1.15,2013-05-21 10:26:00,
2013-05-21 05:29:00,58.3,56.9,29.60,SW,223,0.0,0.0,95,0.00,,,0.31,0,Wunderground v.1.15,2013-05-21 10:29:00,
2013-05-21 05:30:00,58.3,56.9,29.60,SW,223,0.0,0.0,95,0.00,,,0.31,0,Wunderground v.1.15,2013-05-21 10:30:00,
2013-05-21 05:31:00,58.3,56.9,29.60,SW,223,0.0,1.0,95,0.00,,,0.31,0,Wunderground v.1.15,2013-05-21 10:31:00,
2013-05-21 05:34:00,58.2,56.8,29.60,SW,223,0.0,1.0,95,0.00,,,0.31,0,Wunderground v.1.15,2013-05-21 10:34:00,
2013-05-21 05:35:00,58.2,56.8,29.60,SW,223,0.0,1.0,95,0.00,,,0.31,0,Wunderground v.1.15,2013-05-21 10:35:00,
2013-05-21 05:37:00,58.2,56.8,29.60,SW,223,0.0,1.0,95,0.00,,,0.31,0,Wunderground v.1.15,2013-05-21 10:37:00,
2013-05-21 05:38:00,58.2,56.8,29.60,SW,223,0.0,1.0,95,0.00,,,0.31,0,Wunderground v.1.15,2013-05-21 10:38:00,
2013-05-21 05:40:00,58.2,56.8,29.60,SW,223,0.0,0.0,95,0.00,,,0.31,5,Wunderground v.1.15,2013-05-21 10:40:00,
2013-05-21 05:43:00,58.2,56.8,29.60,SW,223,0.0,0.0,95,0.00,,,0.31,7,Wunderground v.1.15,2013-05-21 10:43:00,
2013-05-21 05:44:00,58.2,56.8,29.60,SW,223,0.0,0.0,95,0.00,,,0.31,7,Wunderground v.1.15,2013-05-21 10:44:00,
2013-05-21 05:48:00,58.2,56.8,29.61,SW,223,0.0,1.0,95,0.00,,,0.31,9,Wunderground v.1.15,2013-05-21 10:48:00,
2013-05-21 05:49:00,58.2,56.8,29.61,SW,223,0.0,1.0,95,0.00,,,0.31,11,Wunderground v.1.15,2013-05-21 10:49:00,
2013-05-21 05:50:00,58.2,56.8,29.61,SW,223,0.0,0.0,95,0.00,,,0.31,12,Wunderground v.1.15,2013-05-21 10:50:00,
2013-05-21 05:53:00,58.2,56.8,29.61,SW,223,0.0,0.0,95,0.00,,,0.31,14,Wunderground v.1.15,2013-05-21 10:53:00,
2013-05-21 05:54:00,58.2,56.8,29.61,SW,223,0.0,0.0,95,0.00,,,0.31,12,Wunderground v.1.15,2013-05-21 10:54:00,
2013-05-21 05:55:00,58.2,56.8,29.61,SW,223,0.0,0.0,95,0.00,,,0.31,14,Wunderground v.1.15,2013-05-21 10:55:00,
2013-05-21 05:56:00,58.2,56.8,29.61,SW,223,0.0,0.0,95,0.00,,,0.31,16,Wunderground v.1.15,2013-05-21 10:56:00,
2013-05-21 05:57:00,58.2,56.8,29.61,SW,223,0.0,3.0,95,0.00,,,0.31,16,Wunderground v.1.15,2013-05-21 10:57:00,
2013-05-21 05:59:00,58.3,56.9,29.61,SW,223,0.0,3.0,95,0.00,,,0.31,16,Wunderground v.1.15,2013-05-21 10:59:00,
2013-05-21 06:00:00,58.3,56.9,29.61,SW,223,0.0,0.0,95,0.00,,,0.31,19,Wunderground v.1.15,2013-05-21 11:00:00,
2013-05-21 06:01:00,58.3,56.9,29.61,SW,223,0.0,0.0,95,0.00,,,0.31,19,Wunderground v.1.15,2013-05-21 11:01:00,
2013-05-21 06:04:00,58.3,56.9,29.61,SW,223,0.0,0.0,95,0.00,,,0.31,23,Wunderground v.1.15,2013-05-21 11:04:00,
2013-05-21 06:05:00,58.3,56.9,29.61,SW,223,0.0,0.0,95,0.00,,,0.31,26,Wunderground v.1.15,2013-05-21 11:05:00,
2013-05-21 06:06:00,58.3,56.9,29.61,SW,223,0.0,2.0,95,0.00,,,0.31,26,Wunderground v.1.15,2013-05-21 11:06:00,
2013-05-21 06:08:00,58.4,57.0,29.61,SW,223,0.0,2.0,95,0.00,,,0.31,23,Wunderground v.1.15,2013-05-21 11:08:00,
2013-05-21 06:11:00,58.4,57.0,29.61,SW,223,0.0,0.0,95,0.00,,,0.31,39,Wunderground v.1.15,2013-05-21 11:11:00,
2013-05-21 06:12:00,58.4,57.0,29.61,SW,223,0.0,0.0,95,0.00,,,0.31,33,Wunderground v.1.15,2013-05-21 11:12:00,
2013-05-21 06:13:00,58.4,57.0,29.61,SW,223,0.0,0.0,95,0.00,,,0.31,28,Wunderground v.1.15,2013-05-21 11:13:00,
2013-05-21 06:18:00,58.5,57.4,29.61,SW,223,0.0,0.0,96,0.00,,,0.31,42,Wunderground v.1.15,2013-05-21 11:18:00,
2013-05-21 06:20:00,58.5,57.4,29.61,SW,223,0.0,0.0,96,0.00,,,0.31,35,Wunderground v.1.15,2013-05-21 11:20:00,
2013-05-21 06:22:00,58.5,57.4,29.61,SW,223,0.0,0.0,96,0.00,,,0.31,42,Wunderground v.1.15,2013-05-21 11:22:00,
2013-05-21 06:24:00,58.5,57.4,29.61,SW,223,0.0,0.0,96,0.00,,,0.31,63,Wunderground v.1.15,2013-05-21 11:24:00,
2013-05-21 06:25:00,58.5,57.4,29.61,SW,223,0.0,0.0,96,0.00,,,0.31,79,Wunderground v.1.15,2013-05-21 11:25:00,
2013-05-21 06:26:00,58.5,57.4,29.61,SW,223,0.0,0.0,96,0.00,,,0.31,67,Wunderground v.1.15,2013-05-21 11:26:00,
2013-05-21 06:29:00,58.6,57.5,29.61,SW,223,0.0,0.0,96,0.00,,,0.31,40,Wunderground v.1.15,2013-05-21 11:29:00,
2013-05-21 06:30:00,58.6,57.5,29.61,SW,223,0.0,0.0,96,0.00,,,0.31,40,Wunderground v.1.15,2013-05-21 11:30:00,
2013-05-21 06:34:00,58.7,57.6,29.61,SW,223,0.0,0.0,96,0.00,,,0.31,49,Wunderground v.1.15,2013-05-21 11:34:00,
2013-05-21 06:35:00,58.7,57.6,29.61,SW,223,0.0,0.0,96,0.00,,,0.31,49,Wunderground v.1.15,2013-05-21 11:35:00,
2013-05-21 06:36:00,58.7,57.6,29.61,SW,223,0.0,0.0,96,0.00,,,0.31,53,Wunderground v.1.15,2013-05-21 11:36:00,
2013-05-21 06:40:00,58.8,57.7,29.61,SW,223,0.0,0.0,96,0.00,,,0.31,67,Wunderground v.1.15,2013-05-21 11:40:00,
2013-05-21 06:41:00,58.8,57.7,29.61,SW,223,0.0,0.0,96,0.00,,,0.31,74,Wunderground v.1.15,2013-05-21 11:41:00,
2013-05-21 06:43:00,58.9,57.8,29.61,SW,223,0.0,0.0,96,0.00,,,0.31,121,Wunderground v.1.15,2013-05-21 11:43:00,
2013-05-21 06:44:00,58.9,57.8,29.61,SW,223,0.0,0.0,96,0.00,,,0.31,113,Wunderground v.1.15,2013-05-21 11:44:00,
2013-05-21 06:48:00,59.1,58.0,29.61,SW,223,0.0,1.0,96,0.00,,,0.31,169,Wunderground v.1.15,2013-05-21 11:48:00,
2013-05-21 06:50:00,59.3,58.2,29.61,SW,223,0.0,0.0,96,0.00,,,0.31,142,Wunderground v.1.15,2013-05-21 11:50:00,
2013-05-21 06:51:00,59.4,58.3,29.61,SW,223,0.0,0.0,96,0.00,,,0.31,172,Wunderground v.1.15,2013-05-21 11:51:00,
2013-05-21 06:53:00,59.5,58.4,29.61,SW,223,0.0,0.0,96,0.00,,,0.31,171,Wunderground v.1.15,2013-05-21 11:53:00,
2013-05-21 06:58:00,59.9,58.8,29.61,SW,220,1.0,3.0,96,0.00,,,0.31,172,Wunderground v.1.15,2013-05-21 11:58:00,
2013-05-21 06:59:00,60.0,58.9,29.61,South,173,1.0,5.0,96,0.00,,,0.31,162,Wunderground v.1.15,2013-05-21 11:59:00,
2013-05-21 07:00:00,60.0,58.9,29.61,SE,128,1.0,5.0,96,0.00,,,0.31,132,Wunderground v.1.15,2013-05-21 12:00:00,
2013-05-21 07:03:00,60.2,59.1,29.61,SE,130,2.0,5.0,96,0.00,,,0.31,120,Wunderground v.1.15,2013-05-21 12:03:00,
2013-05-21 07:04:00,60.2,59.1,29.61,SSE,165,2.0,5.0,96,0.00,,,0.31,144,Wunderground v.1.15,2013-05-21 12:04:00,
2013-05-21 07:07:00,60.3,59.2,29.61,SSE,161,2.0,5.0,96,0.00,,,0.31,123,Wunderground v.1.15,2013-05-21 12:07:00,
2013-05-21 07:08:00,60.4,59.3,29.61,East,94,2.0,5.0,96,0.00,,,0.31,176,Wunderground v.1.15,2013-05-21 12:08:00,
2013-05-21 07:09:00,60.4,59.3,29.61,SSE,150,2.0,5.0,96,0.00,,,0.31,134,Wunderground v.1.15,2013-05-21 12:09:00,
2013-05-21 07:10:00,60.5,59.4,29.61,SE,141,2.0,5.0,96,0.00,,,0.31,172,Wunderground v.1.15,2013-05-21 12:10:00,
2013-05-21 07:14:00,60.6,59.5,29.61,SSE,159,1.0,5.0,96,0.00,,,0.31,141,Wunderground v.1.15,2013-05-21 12:14:00,
2013-05-21 07:15:00,60.7,59.6,29.61,SSE,159,1.0,5.0,96,0.00,,,0.31,142,Wunderground v.1.15,2013-05-21 12:15:00,
2013-05-21 07:16:00,60.7,59.6,29.61,SSW,194,2.0,5.0,96,0.00,,,0.31,141,Wunderground v.1.15,2013-05-21 12:16:00,
2013-05-21 07:18:00,60.8,59.7,29.61,South,169,2.0,5.0,96,0.00,,,0.31,183,Wunderground v.1.15,2013-05-21 12:18:00,
2013-05-21 07:19:00,60.8,59.7,29.61,South,169,2.0,5.0,96,0.00,,,0.31,178,Wunderground v.1.15,2013-05-21 12:19:00,
2013-05-21 07:22:00,60.9,59.8,29.61,SSE,156,1.0,5.0,96,0.00,,,0.31,137,Wunderground v.1.15,2013-05-21 12:22:00,
2013-05-21 07:23:00,60.9,59.8,29.61,SSE,167,2.0,5.0,96,0.00,,,0.31,174,Wunderground v.1.15,2013-05-21 12:23:00,
2013-05-21 07:26:00,60.9,59.8,29.61,SSE,155,2.0,8.0,96,0.00,,,0.31,149,Wunderground v.1.15,2013-05-21 12:26:00,
2013-05-21 07:27:00,61.0,59.9,29.61,South,169,2.0,8.0,96,0.00,,,0.31,188,Wunderground v.1.15,2013-05-21 12:27:00,
2013-05-21 07:28:00,61.0,59.9,29.61,South,181,2.0,8.0,96,0.00,,,0.31,123,Wunderground v.1.15,2013-05-21 12:28:00,
2013-05-21 07:33:00,61.1,60.0,29.61,SE,140,2.0,2.0,96,0.00,,,0.31,146,Wunderground v.1.15,2013-05-21 12:33:00,
2013-05-21 07:34:00,61.1,60.0,29.61,SE,140,2.0,2.0,96,0.00,,,0.31,206,Wunderground v.1.15,2013-05-21 12:34:00,
2013-05-21 07:35:00,61.2,60.1,29.61,SE,138,2.0,5.0,96,0.00,,,0.31,204,Wunderground v.1.15,2013-05-21 12:35:00,
2013-05-21 07:38:00,61.2,60.1,29.61,South,177,2.0,5.0,96,0.00,,,0.31,178,Wunderground v.1.15,2013-05-21 12:38:00,
2013-05-21 07:39:00,61.3,60.2,29.61,South,173,2.0,5.0,96,0.00,,,0.31,165,Wunderground v.1.15,2013-05-21 12:39:00,
2013-05-21 07:41:00,61.3,60.2,29.61,SE,135,2.0,4.0,96,0.00,,,0.31,146,Wunderground v.1.15,2013-05-21 12:41:00,
2013-05-21 07:42:00,61.4,60.2,29.61,SE,136,2.0,4.0,96,0.00,,,0.31,155,Wunderground v.1.15,2013-05-21 12:42:00,
2013-05-21 07:44:00,61.4,60.2,29.61,SSE,147,3.0,5.0,96,0.00,,,0.31,195,Wunderground v.1.15,2013-05-21 12:44:00,
2013-05-21 07:45:00,61.5,60.3,29.61,SSE,147,3.0,5.0,96,0.00,,,0.31,176,Wunderground v.1.15,2013-05-21 12:45:00,
2013-05-21 07:48:00,61.6,60.4,29.62,South,189,2.0,5.0,96,0.00,,,0.31,121,Wunderground v.1.15,2013-05-21 12:48:00,
2013-05-21 07:49:00,61.6,60.4,29.62,South,188,2.0,5.0,96,0.00,,,0.31,105,Wunderground v.1.15,2013-05-21 12:49:00,
2013-05-21 07:50:00,61.7,60.5,29.62,South,188,2.0,2.0,96,0.00,,,0.31,102,Wunderground v.1.15,2013-05-21 12:50:00,
2013-05-21 07:51:00,61.7,60.5,29.62,SSE,163,2.0,2.0,96,0.00,,,0.31,102,Wunderground v.1.15,2013-05-21 12:51:00,
2013-05-21 07:55:00,61.7,60.5,29.62,SE,140,3.0,7.0,96,0.00,,,0.31,83,Wunderground v.1.15,2013-05-21 12:55:00,
2013-05-21 07:56:00,61.7,60.5,29.62,South,170,3.0,7.0,96,0.00,,,0.31,88,Wunderground v.1.15,2013-05-21 12:56:00,
2013-05-21 07:57:00,61.8,60.6,29.61,South,184,3.0,7.0,96,0.00,,,0.31,95,Wunderground v.1.15,2013-05-21 12:57:00,
2013-05-21 07:58:00,61.8,60.6,29.61,South,184,2.0,7.0,96,0.00,,,0.31,97,Wunderground v.1.15,2013-05-21 12:58:00,
2013-05-21 07:59:00,61.8,60.6,29.61,SE,141,2.0,7.0,96,0.00,,,0.31,97,Wunderground v.1.15,2013-05-21 12:59:00,
2013-05-21 08:02:00,61.8,60.6,29.61,SE,146,2.0,2.0,96,0.00,,,0.31,98,Wunderground v.1.15,2013-05-21 13:02:00,
2013-05-21 08:03:00,61.9,60.7,29.61,SSE,161,2.0,6.0,96,0.00,,,0.31,77,Wunderground v.1.15,2013-05-21 13:03:00,
2013-05-21 08:05:00,61.9,60.7,29.62,SSW,207,2.0,6.0,96,0.00,,,0.31,62,Wunderground v.1.15,2013-05-21 13:05:00,
2013-05-21 08:08:00,61.9,60.5,29.62,SSE,163,2.0,8.0,95,0.00,,,0.31,60,Wunderground v.1.15,2013-05-21 13:08:00,
2013-05-21 08:11:00,61.9,60.5,29.62,South,184,3.0,3.0,95,0.00,,,0.31,53,Wunderground v.1.15,2013-05-21 13:11:00,
2013-05-21 08:15:00,61.9,60.5,29.62,SSE,155,3.0,6.0,95,0.00,,,0.31,63,Wunderground v.1.15,2013-05-21 13:15:00,
2013-05-21 08:16:00,61.9,60.5,29.62,SSE,151,3.0,6.0,95,0.00,,,0.31,74,Wunderground v.1.15,2013-05-21 13:16:00,
2013-05-21 08:17:00,61.9,60.5,29.62,South,178,2.0,7.0,95,0.00,,,0.31,76,Wunderground v.1.15,2013-05-21 13:17:00,
2013-05-21 08:19:00,62.0,60.6,29.62,South,175,2.0,7.0,95,0.00,,,0.31,83,Wunderground v.1.15,2013-05-21 13:19:00,
2013-05-21 08:20:00,62.0,60.6,29.62,SSE,149,2.0,4.0,95,0.00,,,0.31,76,Wunderground v.1.15,2013-05-21 13:20:00,
2013-05-21 08:23:00,62.0,60.6,29.61,South,174,3.0,7.0,95,0.00,,,0.31,72,Wunderground v.1.15,2013-05-21 13:23:00,
2013-05-21 08:24:00,62.0,60.6,29.62,South,174,3.0,7.0,95,0.00,,,0.31,67,Wunderground v.1.15,2013-05-21 13:24:00,
2013-05-21 08:28:00,62.1,60.7,29.62,South,190,2.0,7.0,95,0.00,,,0.31,51,Wunderground v.1.15,2013-05-21 13:28:00,
2013-05-21 08:30:00,62.1,60.7,29.62,SSE,165,3.0,5.0,95,0.00,,,0.31,47,Wunderground v.1.15,2013-05-21 13:30:00,
2013-05-21 08:31:00,62.1,60.7,29.62,SSW,198,2.0,5.0,95,0.00,,,0.31,47,Wunderground v.1.15,2013-05-21 13:31:00,
2013-05-21 08:36:00,62.1,60.7,29.62,SSE,162,3.0,5.0,95,0.00,,,0.31,60,Wunderground v.1.15,2013-05-21 13:36:00,
2013-05-21 08:38:00,62.2,60.8,29.62,SSE,161,2.0,5.0,95,0.00,,,0.31,60,Wunderground v.1.15,2013-05-21 13:38:00,
2013-05-21 08:41:00,62.2,60.8,29.62,SSE,161,2.0,2.0,95,0.00,,,0.31,51,Wunderground v.1.15,2013-05-21 13:41:00,
2013-05-21 08:42:00,62.2,60.8,29.62,SSE,161,1.0,2.0,95,0.00,,,0.31,53,Wunderground v.1.15,2013-05-21 13:42:00,
2013-05-21 08:45:00,62.3,60.8,29.62,SSE,161,1.0,2.0,95,0.00,,,0.31,40,Wunderground v.1.15,2013-05-21 13:45:00,
2013-05-21 08:46:00,62.3,60.8,29.62,SSE,161,1.0,2.0,95,0.00,,,0.31,42,Wunderground v.1.15,2013-05-21 13:46:00,
2013-05-21 08:47:00,62.2,60.8,29.62,SSE,161,1.0,2.0,95,0.00,,,0.31,42,Wunderground v.1.15,2013-05-21 13:47:00,
2013-05-21 08:50:00,62.3,60.8,29.62,SSE,161,1.0,1.0,95,0.00,,,0.31,46,Wunderground v.1.15,2013-05-21 13:50:00,
2013-05-21 08:52:00,62.3,60.8,29.62,SSE,161,1.0,1.0,95,0.00,,,0.31,49,Wunderground v.1.15,2013-05-21 13:52:00,
2013-05-21 08:53:00,62.3,60.6,29.62,SSE,161,1.0,1.0,94,0.00,,,0.31,40,Wunderground v.1.15,2013-05-21 13:53:00,
2013-05-21 08:55:00,62.3,60.6,29.62,SSW,194,1.0,5.0,94,0.00,,,0.31,26,Wunderground v.1.15,2013-05-21 13:55:00,
2013-05-21 08:56:00,62.3,60.6,29.62,South,175,1.0,5.0,94,0.00,,,0.31,25,Wunderground v.1.15,2013-05-21 13:56:00,
2013-05-21 08:58:00,62.3,60.6,29.62,SSW,194,2.0,8.0,94,0.00,,,0.31,35,Wunderground v.1.15,2013-05-21 13:58:00,
2013-05-21 09:01:00,62.3,60.6,29.62,South,176,2.0,2.0,94,0.00,,,0.31,30,Wunderground v.1.15,2013-05-21 14:01:00,
2013-05-21 09:03:00,62.3,60.6,29.62,South,173,2.0,2.0,94,0.00,,,0.31,37,Wunderground v.1.15,2013-05-21 14:03:00,
2013-05-21 09:04:00,62.3,60.6,29.62,South,173,2.0,2.0,94,0.00,,,0.31,42,Wunderground v.1.15,2013-05-21 14:04:00,
2013-05-21 09:05:00,62.3,60.6,29.62,South,173,2.0,2.0,94,0.00,,,0.31,40,Wunderground v.1.15,2013-05-21 14:05:00,
2013-05-21 09:09:00,62.3,60.6,29.62,SE,141,1.0,6.0,94,0.00,,,0.31,35,Wunderground v.1.15,2013-05-21 14:09:00,
2013-05-21 09:12:00,62.3,60.6,29.63,South,178,3.0,7.0,94,0.00,,,0.31,18,Wunderground v.1.15,2013-05-21 14:12:00,
2013-05-21 09:15:00,62.3,60.6,29.63,South,186,3.0,7.0,94,0.00,,,0.32,35,Wunderground v.1.15,2013-05-21 14:15:00,
2013-05-21 09:16:00,62.3,60.6,29.63,South,186,3.0,7.0,94,0.00,,,0.32,37,Wunderground v.1.15,2013-05-21 14:16:00,
2013-05-21 09:17:00,62.3,60.6,29.63,South,186,3.0,7.0,94,0.00,,,0.32,49,Wunderground v.1.15,2013-05-21 14:17:00,
2013-05-21 09:19:00,62.3,60.6,29.63,South,179,3.0,7.0,94,0.00,,,0.32,37,Wunderground v.1.15,2013-05-21 14:19:00,
2013-05-21 09:22:00,62.3,60.2,29.63,SSE,157,3.0,6.0,93,0.08,,,0.33,46,Wunderground v.1.15,2013-05-21 14:22:00,
2013-05-21 09:23:00,62.3,60.2,29.63,SW,215,3.0,6.0,93,0.08,,,0.33,49,Wunderground v.1.15,2013-05-21 14:23:00,
2013-05-21 09:24:00,62.3,60.6,29.63,SSW,213,3.0,6.0,94,0.08,,,0.33,53,Wunderground v.1.15,2013-05-21 14:24:00,
2013-05-21 09:28:00,62.3,60.6,29.63,SSE,164,3.0,6.0,94,0.08,,,0.33,42,Wunderground v.1.15,2013-05-21 14:28:00,
2013-05-21 09:31:00,62.3,60.6,29.63,SSE,164,2.0,2.0,94,0.06,,,0.33,47,Wunderground v.1.15,2013-05-21 14:31:00,
2013-05-21 09:32:00,62.3,60.6,29.63,SSE,164,1.0,2.0,94,0.06,,,0.33,47,Wunderground v.1.15,2013-05-21 14:32:00,
2013-05-21 09:33:00,62.3,60.6,29.63,SSE,164,1.0,2.0,94,0.05,,,0.33,53,Wunderground v.1.15,2013-05-21 14:33:00,
2013-05-21 09:35:00,62.3,60.6,29.63,SSE,164,1.0,2.0,94,0.05,,,0.33,53,Wunderground v.1.15,2013-05-21 14:35:00,
2013-05-21 09:37:00,62.3,60.6,29.63,SSE,164,1.0,2.0,94,0.04,,,0.33,69,Wunderground v.1.15,2013-05-21 14:37:00,
2013-05-21 09:38:00,62.3,60.6,29.63,SSE,164,1.0,2.0,94,0.04,,,0.33,97,Wunderground v.1.15,2013-05-21 14:38:00,
2013-05-21 09:42:00,62.3,60.6,29.63,SSE,163,1.0,4.0,94,0.00,,,0.33,128,Wunderground v.1.15,2013-05-21 14:42:00,
2013-05-21 09:44:00,62.3,60.6,29.63,SSE,163,2.0,4.0,94,0.00,,,0.33,153,Wunderground v.1.15,2013-05-21 14:44:00,
2013-05-21 09:45:00,62.3,60.6,29.63,SSE,163,2.0,4.0,94,0.00,,,0.33,181,Wunderground v.1.15,2013-05-21 14:45:00,
2013-05-21 09:47:00,62.4,60.7,29.63,SSE,157,2.0,5.0,94,0.00,,,0.33,209,Wunderground v.1.15,2013-05-21 14:47:00,
2013-05-21 09:50:00,62.4,60.7,29.63,SSE,157,2.0,2.0,94,0.00,,,0.33,248,Wunderground v.1.15,2013-05-21 14:50:00,
2013-05-21 09:51:00,62.5,60.7,29.63,SSE,157,2.0,2.0,94,0.00,,,0.33,295,Wunderground v.1.15,2013-05-21 14:51:00,
2013-05-21 09:52:00,62.9,61.4,29.63,SSE,157,2.0,2.0,95,0.00,,,0.33,325,Wunderground v.1.15,2013-05-21 14:52:00,
2013-05-21 09:56:00,62.9,61.1,29.63,SSE,157,1.0,4.0,94,0.00,,,0.33,336,Wunderground v.1.15,2013-05-21 14:56:00,
2013-05-21 09:57:00,63.0,61.2,29.63,SSE,156,1.0,5.0,94,0.00,,,0.33,406,Wunderground v.1.15,2013-05-21 14:57:00,
2013-05-21 09:58:00,63.0,61.2,29.63,SSE,150,1.0,5.0,94,0.00,,,0.33,364,Wunderground v.1.15,2013-05-21 14:58:00,
2013-05-21 09:59:00,63.1,61.3,29.63,SSE,150,1.0,5.0,94,0.00,,,0.33,353,Wunderground v.1.15,2013-05-21 14:59:00,
2013-05-21 10:01:00,63.5,62.0,29.63,SSE,153,1.0,1.0,95,0.00,,,0.33,366,Wunderground v.1.15,2013-05-21 15:01:00,
2013-05-21 10:03:00,63.6,61.8,29.63,South,177,2.0,4.0,94,0.00,,,0.33,366,Wunderground v.1.15,2013-05-21 15:03:00,
2013-05-21 10:04:00,63.6,61.5,29.63,South,179,2.0,7.0,93,0.00,,,0.33,366,Wunderground v.1.15,2013-05-21 15:04:00,
2013-05-21 10:06:00,63.7,61.6,29.63,SSE,154,2.0,7.0,93,0.00,,,0.33,489,Wunderground v.1.15,2013-05-21 15:06:00,
2013-05-21 10:08:00,63.9,61.8,29.63,South,182,2.0,7.0,93,0.00,,,0.33,480,Wunderground v.1.15,2013-05-21 15:08:00,
2013-05-21 10:10:00,64.2,62.1,29.63,SE,135,3.0,6.0,93,0.00,,,0.33,469,Wunderground v.1.15,2013-05-21 15:10:00,
2013-05-21 10:13:00,64.2,61.8,29.63,ESE,111,4.0,6.0,92,0.00,,,0.33,469,Wunderground v.1.15,2013-05-21 15:13:00,
2013-05-21 10:14:00,64.2,61.8,29.63,SE,132,4.0,6.0,92,0.00,,,0.33,415,Wunderground v.1.15,2013-05-21 15:14:00,
2013-05-21 10:16:00,64.3,61.9,29.63,South,182,4.0,8.0,92,0.00,,,0.33,877,Wunderground v.1.15,2013-05-21 15:16:00,
2013-05-21 10:17:00,64.4,61.7,29.63,SSW,207,4.0,8.0,91,0.00,,,0.33,877,Wunderground v.1.15,2013-05-21 15:17:00,
2013-05-21 10:21:00,65.1,62.4,29.63,South,170,4.0,4.0,91,0.00,,,0.33,485,Wunderground v.1.15,2013-05-21 15:21:00,
2013-05-21 10:22:00,65.2,62.2,29.63,SSE,150,4.0,4.0,90,0.00,,,0.33,338,Wunderground v.1.15,2013-05-21 15:22:00,
2013-05-21 10:24:00,65.4,62.4,29.63,South,173,4.0,5.0,90,0.00,,,0.33,313,Wunderground v.1.15,2013-05-21 15:24:00,
2013-05-21 10:25:00,65.6,62.9,29.63,SSE,159,3.0,5.0,91,0.00,,,0.33,991,Wunderground v.1.15,2013-05-21 15:25:00,
2013-05-21 10:26:00,65.6,62.3,29.63,SE,128,3.0,13.0,89,0.00,,,0.33,390,Wunderground v.1.15,2013-05-21 15:26:00,
2013-05-21 10:30:00,65.4,61.8,29.63,SSE,157,4.0,5.0,88,0.00,,,0.33,947,Wunderground v.1.15,2013-05-21 15:30:00,
2013-05-21 10:33:00,65.7,62.0,29.63,SSW,192,5.0,8.0,88,0.00,,,0.33,439,Wunderground v.1.15,2013-05-21 15:33:00,
2013-05-21 10:36:00,65.9,61.9,29.63,SSE,165,5.0,8.0,87,0.00,,,0.33,415,Wunderground v.1.15,2013-05-21 15:36:00,
2013-05-21 10:38:00,66.1,62.4,29.63,SSE,153,4.0,8.0,88,0.00,,,0.33,383,Wunderground v.1.15,2013-05-21 15:38:00,
2013-05-21 10:39:00,66.1,62.1,29.63,SSE,159,4.0,8.0,87,0.00,,,0.33,383,Wunderground v.1.15,2013-05-21 15:39:00,
2013-05-21 10:41:00,66.3,62.0,29.63,SW,219,4.0,5.0,86,0.00,,,0.33,958,Wunderground v.1.15,2013-05-21 15:41:00,
2013-05-21 10:43:00,66.8,61.8,29.63,SE,124,4.0,13.0,84,0.00,,,0.33,914,Wunderground v.1.15,2013-05-21 15:43:00,
2013-05-21 10:45:00,67.1,62.4,29.63,SSW,196,4.0,13.0,85,0.00,,,0.33,877,Wunderground v.1.15,2013-05-21 15:45:00,
2013-05-21 10:46:00,67.2,62.2,29.63,South,188,5.0,13.0,84,0.00,,,0.33,877,Wunderground v.1.15,2013-05-21 15:46:00,
2013-05-21 10:51:00,67.8,61.8,29.63,SW,216,5.0,6.0,81,0.00,,,0.33,926,Wunderground v.1.15,2013-05-21 15:51:00,
2013-05-21 10:52:00,67.9,61.5,29.63,SSW,202,4.0,6.0,80,0.00,,,0.33,926,Wunderground v.1.15,2013-05-21 15:52:00,
2013-05-21 10:53:00,67.9,61.1,29.63,SSW,206,4.0,6.0,79,0.00,,,0.33,918,Wunderground v.1.15,2013-05-21 15:53:00,
2013-05-21 10:56:00,68.5,62.4,29.63,South,175,4.0,6.0,81,0.00,,,0.33,1014,Wunderground v.1.15,2013-05-21 15:56:00,
2013-05-21 10:57:00,68.7,62.6,29.63,SSE,161,3.0,6.0,81,0.00,,,0.33,998,Wunderground v.1.15,2013-05-21 15:57:00,
2013-05-21 11:01:00,68.3,61.2,29.63,South,169,4.0,4.0,78,0.00,,,0.33,1069,Wunderground v.1.15,2013-05-21 16:01:00,
2013-05-21 11:06:00,68.6,60.7,29.63,South,188,4.0,8.0,76,0.00,,,0.33,445,Wunderground v.1.15,2013-05-21 16:06:00,
2013-05-21 11:07:00,68.4,60.9,29.63,SSW,205,4.0,8.0,77,0.00,,,0.33,445,Wunderground v.1.15,2013-05-21 16:07:00,
2013-05-21 11:09:00,68.1,60.6,29.63,SSE,161,4.0,8.0,77,0.00,,,0.33,229,Wunderground v.1.15,2013-05-21 16:09:00,
2013-05-21 11:11:00,67.7,60.2,29.63,South,175,4.0,5.0,77,0.00,,,0.33,322,Wunderground v.1.15,2013-05-21 16:11:00,
2013-05-21 11:12:00,67.6,60.5,29.63,South,178,4.0,5.0,78,0.00,,,0.33,322,Wunderground v.1.15,2013-05-21 16:12:00,
2013-05-21 11:13:00,67.6,60.5,29.63,SSW,213,4.0,5.0,78,0.00,,,0.33,650,Wunderground v.1.15,2013-05-21 16:13:00,
2013-05-21 11:14:00,67.7,61.3,29.63,SSW,196,4.0,8.0,80,0.00,,,0.33,1053,Wunderground v.1.15,2013-05-21 16:14:00,
2013-05-21 11:18:00,68.4,61.3,29.63,SSW,208,4.0,8.0,78,0.00,,,0.33,1058,Wunderground v.1.15,2013-05-21 16:18:00,
2013-05-21 11:19:00,68.5,61.0,29.63,WSW,244,5.0,8.0,77,0.00,,,0.33,1058,Wunderground v.1.15,2013-05-21 16:19:00,
2013-05-21 11:24:00,68.1,59.5,29.63,SSW,200,6.0,8.0,74,0.00,,,0.33,223,Wunderground v.1.15,2013-05-21 16:24:00,
2013-05-21 11:25:00,68.0,59.8,29.63,SSW,210,6.0,8.0,75,0.00,,,0.33,216,Wunderground v.1.15,2013-05-21 16:25:00,
2013-05-21 11:26:00,67.9,59.7,29.63,SSW,194,6.0,8.0,75,0.00,,,0.33,214,Wunderground v.1.15,2013-05-21 16:26:00,
2013-05-21 11:27:00,67.8,59.6,29.62,SSW,198,6.0,8.0,75,0.00,,,0.33,234,Wunderground v.1.15,2013-05-21 16:27:00,
2013-05-21 11:29:00,67.7,59.5,29.62,SSW,211,6.0,8.0,75,0.00,,,0.33,315,Wunderground v.1.15,2013-05-21 16:29:00,
2013-05-21 11:33:00,68.2,60.3,29.62,SSW,210,5.0,7.0,76,0.00,,,0.33,977,Wunderground v.1.15,2013-05-21 16:33:00,
2013-05-21 11:34:00,68.5,60.6,29.62,SW,217,4.0,7.0,76,0.00,,,0.33,954,Wunderground v.1.15,2013-05-21 16:34:00,
2013-05-21 11:35:00,68.7,60.8,29.62,SSW,207,4.0,7.0,76,0.00,,,0.33,954,Wunderground v.1.15,2013-05-21 16:35:00,
2013-05-21 11:38:00,69.2,60.2,29.62,South,182,3.0,7.0,73,0.00,,,0.33,976,Wunderground v.1.15,2013-05-21 16:38:00,
2013-05-21 11:39:00,69.4,61.1,29.62,South,187,3.0,7.0,75,0.00,,,0.33,1037,Wunderground v.1.15,2013-05-21 16:39:00,
2013-05-21 11:42:00,69.4,60.0,29.62,SSE,156,3.0,5.0,72,0.00,,,0.33,1009,Wunderground v.1.15,2013-05-21 16:42:00,
2013-05-21 11:46:00,70.0,59.4,29.62,SE,140,5.0,12.0,69,0.00,,,0.33,1097,Wunderground v.1.15,2013-05-21 16:46:00,
2013-05-21 11:47:00,69.9,59.3,29.62,South,180,5.0,12.0,69,0.00,,,0.33,522,Wunderground v.1.15,2013-05-21 16:47:00,
2013-05-21 11:48:00,69.8,58.8,29.63,SSE,165,5.0,12.0,68,0.00,,,0.33,522,Wunderground v.1.15,2013-05-21 16:48:00,
2013-05-21 11:49:00,69.7,58.7,29.63,South,187,6.0,12.0,68,0.00,,,0.33,1083,Wunderground v.1.15,2013-05-21 16:49:00,
2013-05-21 11:53:00,70.0,59.4,29.63,South,169,6.0,6.0,69,0.00,,,0.33,1083,Wunderground v.1.15,2013-05-21 16:53:00,
2013-05-21 11:55:00,70.1,59.5,29.63,SSE,153,6.0,8.0,69,0.00,,,0.33,1125,Wunderground v.1.15,2013-05-21 16:55:00,
2013-05-21 11:57:00,69.9,59.3,29.63,South,186,6.0,8.0,69,0.00,,,0.33,1125,Wunderground v.1.15,2013-05-21 16:57:00,
2013-05-21 12:01:00,69.5,58.9,29.62,SSE,159,5.0,10.0,69,0.00,,,0.33,330,Wunderground v.1.15,2013-05-21 17:01:00,
2013-05-21 12:03:00,69.2,58.2,29.62,SSW,194,5.0,10.0,68,0.00,,,0.33,309,Wunderground v.1.15,2013-05-21 17:03:00,
2013-05-21 12:04:00,69.2,59.0,29.62,South,185,5.0,10.0,70,0.00,,,0.33,295,Wunderground v.1.15,2013-05-21 17:04:00,
2013-05-21 12:05:00,69.1,58.5,29.63,SSW,209,5.0,10.0,69,0.00,,,0.33,288,Wunderground v.1.15,2013-05-21 17:05:00,
2013-05-21 12:08:00,69.1,58.9,29.62,South,190,4.0,10.0,70,0.00,,,0.33,269,Wunderground v.1.15,2013-05-21 17:08:00,
2013-05-21 12:10:00,69.1,58.9,29.63,SSW,212,4.0,4.0,70,0.00,,,0.33,264,Wunderground v.1.15,2013-05-21 17:10:00,
2013-05-21 12:11:00,69.0,58.8,29.62,South,184,4.0,5.0,70,0.00,,,0.33,267,Wunderground v.1.15,2013-05-21 17:11:00,
2013-05-21 12:12:00,69.0,58.4,29.62,South,178,4.0,6.0,69,0.00,,,0.33,308,Wunderground v.1.15,2013-05-21 17:12:00,
2013-05-21 12:15:00,69.1,58.5,29.62,South,176,4.0,8.0,69,0.00,,,0.33,308,Wunderground v.1.15,2013-05-21 17:15:00,
2013-05-21 12:16:00,69.1,58.5,29.62,South,180,4.0,8.0,69,0.00,,,0.33,338,Wunderground v.1.15,2013-05-21 17:16:00,
2013-05-21 12:17:00,69.1,58.5,29.63,South,187,4.0,8.0,69,0.00,,,0.33,381,Wunderground v.1.15,2013-05-21 17:17:00,
2013-05-21 12:18:00,69.2,59.0,29.62,SSE,163,4.0,8.0,70,0.00,,,0.33,415,Wunderground v.1.15,2013-05-21 17:18:00,
2013-05-21 12:19:00,69.1,58.5,29.62,South,178,4.0,8.0,69,0.00,,,0.33,425,Wunderground v.1.15,2013-05-21 17:19:00,
2013-05-21 12:23:00,69.3,58.7,29.62,South,179,5.0,6.0,69,0.00,,,0.33,362,Wunderground v.1.15,2013-05-21 17:23:00,
2013-05-21 12:24:00,69.2,58.6,29.62,South,173,5.0,6.0,69,0.00,,,0.33,346,Wunderground v.1.15,2013-05-21 17:24:00,
2013-05-21 12:25:00,69.2,59.0,29.62,SSE,163,5.0,6.0,70,0.00,,,0.33,330,Wunderground v.1.15,2013-05-21 17:25:00,
2013-05-21 12:29:00,69.2,59.0,29.63,South,173,5.0,8.0,70,0.00,,,0.33,264,Wunderground v.1.15,2013-05-21 17:29:00,
2013-05-21 12:31:00,69.1,58.9,29.63,South,186,5.0,6.0,70,0.00,,,0.33,251,Wunderground v.1.15,2013-05-21 17:31:00,
2013-05-21 12:32:00,69.1,58.9,29.63,South,174,5.0,6.0,70,0.00,,,0.33,244,Wunderground v.1.15,2013-05-21 17:32:00,
2013-05-21 12:34:00,69.2,60.2,29.63,SSW,200,4.0,6.0,73,0.00,,,0.33,230,Wunderground v.1.15,2013-05-21 17:34:00,
2013-05-21 12:35:00,69.2,59.8,29.63,SE,146,4.0,6.0,72,0.00,,,0.33,234,Wunderground v.1.15,2013-05-21 17:35:00,
2013-05-21 12:37:00,69.3,59.5,29.63,WSW,257,3.0,7.0,71,0.00,,,0.33,265,Wunderground v.1.15,2013-05-21 17:37:00,
2013-05-21 12:38:00,69.2,59.4,29.63,South,171,3.0,7.0,71,0.00,,,0.33,281,Wunderground v.1.15,2013-05-21 17:38:00,
2013-05-21 12:39:00,69.2,59.4,29.63,SSW,196,3.0,7.0,71,0.00,,,0.33,290,Wunderground v.1.15,2013-05-21 17:39:00,
2013-05-21 12:42:00,69.1,58.5,29.63,SSW,205,3.0,5.0,69,0.00,,,0.33,346,Wunderground v.1.15,2013-05-21 17:42:00,
2013-05-21 12:44:00,69.1,58.5,29.63,SSW,209,3.0,5.0,69,0.00,,,0.33,404,Wunderground v.1.15,2013-05-21 17:44:00,
2013-05-21 12:45:00,69.1,58.9,29.63,South,184,3.0,5.0,70,0.00,,,0.33,432,Wunderground v.1.15,2013-05-21 17:45:00,
2013-05-21 12:46:00,69.2,59.0,29.63,SSW,210,3.0,8.0,70,0.00,,,0.33,503,Wunderground v.1.15,2013-05-21 17:46:00,
2013-05-21 12:47:00,69.3,59.1,29.63,SSW,195,4.0,8.0,70,0.00,,,0.33,563,Wunderground v.1.15,2013-05-21 17:47:00,
2013-05-21 12:49:00,69.4,58.8,29.63,SSE,157,4.0,8.0,69,0.00,,,0.33,563,Wunderground v.1.15,2013-05-21 17:49:00,
2013-05-21 12:50:00,69.5,59.3,29.63,South,182,4.0,4.0,70,0.00,,,0.33,504,Wunderground v.1.15,2013-05-21 17:50:00,
2013-05-21 12:53:00,69.6,59.4,29.63,South,190,4.0,5.0,70,0.00,,,0.33,577,Wunderground v.1.15,2013-05-21 17:53:00,
2013-05-21 12:54:00,69.8,59.6,29.63,South,190,4.0,5.0,70,0.00,,,0.33,520,Wunderground v.1.15,2013-05-21 17:54:00,
2013-05-21 12:55:00,70.0,59.8,29.63,SSW,196,4.0,5.0,70,0.00,,,0.33,485,Wunderground v.1.15,2013-05-21 17:55:00,
2013-05-21 12:57:00,70.1,59.0,29.63,South,179,4.0,9.0,68,0.00,,,0.33,439,Wunderground v.1.15,2013-05-21 17:57:00,
2013-05-21 12:58:00,69.9,58.9,29.63,SSE,161,4.0,9.0,68,0.00,,,0.33,480,Wunderground v.1.15,2013-05-21 17:58:00,
2013-05-21 13:01:00,69.7,58.7,29.63,SW,215,4.0,10.0,68,0.00,,,0.33,564,Wunderground v.1.15,2013-05-21 18:01:00,
2013-05-21 13:03:00,69.7,59.1,29.63,SSW,194,5.0,10.0,69,0.00,,,0.33,497,Wunderground v.1.15,2013-05-21 18:03:00,
2013-05-21 13:04:00,69.9,60.1,29.63,South,174,5.0,10.0,71,0.00,,,0.33,394,Wunderground v.1.15,2013-05-21 18:04:00,
2013-05-21 13:09:00,69.7,58.3,29.63,South,169,6.0,11.0,67,0.00,,,0.33,427,Wunderground v.1.15,2013-05-21 18:09:00,
2013-05-21 13:10:00,69.6,58.6,29.63,South,184,6.0,6.0,68,0.00,,,0.33,482,Wunderground v.1.15,2013-05-21 18:10:00,
2013-05-21 13:11:00,69.7,58.7,29.63,South,172,6.0,9.0,68,0.00,,,0.33,475,Wunderground v.1.15,2013-05-21 18:11:00,
2013-05-21 13:12:00,69.7,59.1,29.63,SSE,167,6.0,9.0,69,0.00,,,0.33,568,Wunderground v.1.15,2013-05-21 18:12:00,
2013-05-21 13:16:00,70.3,58.0,29.63,SSE,164,7.0,9.0,65,0.00,,,0.33,1288,Wunderground v.1.15,2013-05-21 18:16:00,
2013-05-21 13:17:00,70.3,58.8,29.63,SSW,204,6.0,9.0,67,0.00,,,0.33,613,Wunderground v.1.15,2013-05-21 18:17:00,
2013-05-21 13:19:00,70.6,59.1,29.63,South,186,6.0,10.0,67,0.00,,,0.33,547,Wunderground v.1.15,2013-05-21 18:19:00,
2013-05-21 13:23:00,70.7,59.2,29.64,South,178,6.0,8.0,67,0.00,,,0.33,506,Wunderground v.1.15,2013-05-21 18:23:00,
2013-05-21 13:24:00,70.7,59.6,29.64,SSW,213,6.0,8.0,68,0.00,,,0.33,487,Wunderground v.1.15,2013-05-21 18:24:00,
2013-05-21 13:27:00,71.0,59.9,29.64,SSW,213,5.0,8.0,68,0.00,,,0.33,487,Wunderground v.1.15,2013-05-21 18:27:00,
2013-05-21 13:28:00,71.2,59.7,29.64,SW,216,5.0,11.0,67,0.00,,,0.33,513,Wunderground v.1.15,2013-05-21 18:28:00,
2013-05-21 13:29:00,71.1,59.2,29.64,SSW,205,5.0,11.0,66,0.00,,,0.33,513,Wunderground v.1.15,2013-05-21 18:29:00,
2013-05-21 13:30:00,70.9,58.5,29.64,SW,217,5.0,6.0,65,0.00,,,0.33,434,Wunderground v.1.15,2013-05-21 18:30:00,
2013-05-21 13:33:00,70.3,58.8,29.64,SSW,210,6.0,12.0,67,0.00,,,0.33,359,Wunderground v.1.15,2013-05-21 18:33:00,
2013-05-21 13:36:00,69.9,58.9,29.64,SSW,202,7.0,12.0,68,0.00,,,0.33,322,Wunderground v.1.15,2013-05-21 18:36:00,
2013-05-21 13:37:00,69.8,58.8,29.64,SSW,198,8.0,12.0,68,0.00,,,0.33,313,Wunderground v.1.15,2013-05-21 18:37:00,
2013-05-21 13:39:00,69.5,58.9,29.65,SW,214,9.0,13.0,69,0.00,,,0.33,320,Wunderground v.1.15,2013-05-21 18:39:00,
2013-05-21 13:42:00,69.2,59.0,29.65,SSW,202,10.0,10.0,70,0.00,,,0.33,408,Wunderground v.1.15,2013-05-21 18:42:00,
2013-05-21 13:43:00,69.1,58.9,29.65,SW,216,10.0,10.0,70,0.00,,,0.33,429,Wunderground v.1.15,2013-05-21 18:43:00,
2013-05-21 13:44:00,69.1,59.3,29.65,SW,219,10.0,10.0,71,0.00,,,0.33,443,Wunderground v.1.15,2013-05-21 18:44:00,
2013-05-21 13:45:00,69.1,59.3,29.65,SSW,198,10.0,10.0,71,0.00,,,0.33,462,Wunderground v.1.15,2013-05-21 18:45:00,
2013-05-21 13:46:00,69.2,59.4,29.65,SW,236,9.0,10.0,71,0.00,,,0.33,499,Wunderground v.1.15,2013-05-21 18:46:00,
2013-05-21 13:49:00,69.4,59.2,29.65,SSW,207,8.0,10.0,70,0.00,,,0.33,464,Wunderground v.1.15,2013-05-21 18:49:00,
2013-05-21 13:50:00,69.4,59.2,29.65,SW,224,8.0,9.0,70,0.00,,,0.33,452,Wunderground v.1.15,2013-05-21 18:50:00,
2013-05-21 13:51:00,69.4,59.2,29.65,South,171,8.0,9.0,70,0.00,,,0.33,446,Wunderground v.1.15,2013-05-21 18:51:00,
2013-05-21 13:53:00,69.6,59.0,29.65,SSW,210,7.0,9.0,69,0.00,,,0.33,427,Wunderground v.1.15,2013-05-21 18:53:00,
2013-05-21 13:55:00,69.7,59.1,29.65,South,184,7.0,10.0,69,0.00,,,0.33,380,Wunderground v.1.15,2013-05-21 18:55:00,
2013-05-21 13:56:00,69.7,59.1,29.65,SSW,208,7.0,10.0,69,0.00,,,0.33,369,Wunderground v.1.15,2013-05-21 18:56:00,
2013-05-21 13:58:00,69.9,59.7,29.65,SSW,195,6.0,10.0,70,0.00,,,0.33,359,Wunderground v.1.15,2013-05-21 18:58:00,
2013-05-21 13:59:00,69.8,59.2,29.65,SSW,203,6.0,10.0,69,0.00,,,0.33,355,Wunderground v.1.15,2013-05-21 18:59:00,
2013-05-21 14:00:00,69.8,59.6,29.65,SW,232,6.0,6.0,70,0.00,,,0.33,350,Wunderground v.1.15,2013-05-21 19:00:00,
2013-05-21 14:03:00,69.5,58.9,29.65,SSW,198,6.0,9.0,69,0.00,,,0.33,343,Wunderground v.1.15,2013-05-21 19:03:00,
2013-05-21 14:04:00,69.4,58.8,29.65,South,173,6.0,9.0,69,0.00,,,0.33,327,Wunderground v.1.15,2013-05-21 19:04:00,
2013-05-21 14:05:00,69.3,58.7,29.65,South,173,6.0,9.0,69,0.00,,,0.33,311,Wunderground v.1.15,2013-05-21 19:05:00,
2013-05-21 14:09:00,69.2,58.6,29.65,SSW,205,6.0,10.0,69,0.00,,,0.33,276,Wunderground v.1.15,2013-05-21 19:09:00,
2013-05-21 14:10:00,69.1,58.5,29.65,SSW,207,6.0,6.0,69,0.00,,,0.33,287,Wunderground v.1.15,2013-05-21 19:10:00,
2013-05-21 14:12:00,69.0,58.8,29.65,SSW,193,6.0,9.0,70,0.00,,,0.33,325,Wunderground v.1.15,2013-05-21 19:12:00,
2013-05-21 14:13:00,69.0,58.8,29.65,South,191,7.0,9.0,70,0.00,,,0.33,380,Wunderground v.1.15,2013-05-21 19:13:00,
2013-05-21 14:15:00,69.0,58.8,29.65,South,186,6.0,9.0,70,0.00,,,0.33,436,Wunderground v.1.15,2013-05-21 19:15:00,
2013-05-21 14:18:00,69.1,58.5,29.65,South,173,6.0,9.0,69,0.00,,,0.33,425,Wunderground v.1.15,2013-05-21 19:18:00,
2013-05-21 14:19:00,69.1,59.3,29.65,South,183,6.0,9.0,71,0.00,,,0.33,425,Wunderground v.1.15,2013-05-21 19:19:00,
2013-05-21 14:21:00,69.2,59.4,29.65,SSW,192,6.0,6.0,71,0.00,,,0.33,399,Wunderground v.1.15,2013-05-21 19:21:00,
2013-05-21 14:23:00,69.2,59.0,29.66,SSW,209,6.0,7.0,70,0.00,,,0.33,406,Wunderground v.1.15,2013-05-21 19:23:00,
2013-05-21 14:27:00,69.4,59.2,29.66,South,180,6.0,7.0,70,0.00,,,0.33,381,Wunderground v.1.15,2013-05-21 19:27:00,
2013-05-21 14:28:00,69.4,59.6,29.66,SSW,209,6.0,9.0,71,0.00,,,0.33,438,Wunderground v.1.15,2013-05-21 19:28:00,
2013-05-21 14:30:00,69.3,58.7,29.66,South,184,6.0,7.0,69,0.00,,,0.33,404,Wunderground v.1.15,2013-05-21 19:30:00,
2013-05-21 14:32:00,69.2,58.6,29.66,SSW,211,7.0,11.0,69,0.00,,,0.33,327,Wunderground v.1.15,2013-05-21 19:32:00,
2013-05-21 14:33:00,69.0,58.4,29.66,SSW,210,7.0,11.0,69,0.00,,,0.33,299,Wunderground v.1.15,2013-05-21 19:33:00,
2013-05-21 14:34:00,69.0,58.4,29.66,SSW,200,7.0,11.0,69,0.00,,,0.33,279,Wunderground v.1.15,2013-05-21 19:34:00,
2013-05-21 14:35:00,69.0,58.8,29.66,SSW,209,8.0,11.0,70,0.00,,,0.33,257,Wunderground v.1.15,2013-05-21 19:35:00,
2013-05-21 14:38:00,68.9,58.7,29.66,SSW,211,8.0,11.0,70,0.00,,,0.33,176,Wunderground v.1.15,2013-05-21 19:38:00,
2013-05-21 14:41:00,68.8,59.0,29.66,SSW,199,7.0,7.0,71,0.00,,,0.33,169,Wunderground v.1.15,2013-05-21 19:41:00,
2013-05-21 14:42:00,68.8,59.0,29.66,SSW,207,7.0,7.0,71,0.00,,,0.33,165,Wunderground v.1.15,2013-05-21 19:42:00,
2013-05-21 14:44:00,68.8,59.0,29.66,SSW,203,6.0,7.0,71,0.00,,,0.33,153,Wunderground v.1.15,2013-05-21 19:44:00,
2013-05-21 14:45:00,68.8,59.4,29.66,South,169,5.0,7.0,72,0.00,,,0.33,137,Wunderground v.1.15,2013-05-21 19:45:00,
2013-05-21 14:47:00,68.6,58.8,29.66,SW,214,4.0,7.0,71,0.00,,,0.33,130,Wunderground v.1.15,2013-05-21 19:47:00,
2013-05-21 14:50:00,68.4,58.6,29.66,SSW,200,4.0,4.0,71,0.00,,,0.33,137,Wunderground v.1.15,2013-05-21 19:50:00,
2013-05-21 14:52:00,68.2,58.4,29.66,SW,228,4.0,6.0,71,0.00,,,0.33,155,Wunderground v.1.15,2013-05-21 19:52:00,
2013-05-21 14:53:00,68.0,58.2,29.66,SSW,205,4.0,6.0,71,0.00,,,0.33,167,Wunderground v.1.15,2013-05-21 19:53:00,
2013-05-21 14:55:00,67.9,58.5,29.66,SSW,210,5.0,6.0,72,0.00,,,0.33,178,Wunderground v.1.15,2013-05-21 19:55:00,
2013-05-21 14:56:00,67.9,58.1,29.67,SSW,204,5.0,9.0,71,0.00,,,0.33,181,Wunderground v.1.15,2013-05-21 19:56:00,
2013-05-21 14:59:00,67.7,58.3,29.67,SSW,193,5.0,9.0,72,0.00,,,0.33,216,Wunderground v.1.15,2013-05-21 19:59:00,
2013-05-21 15:00:00,67.7,58.3,29.67,SSW,194,5.0,5.0,72,0.00,,,0.33,234,Wunderground v.1.15,2013-05-21 20:00:00,
2013-05-21 15:01:00,67.7,58.3,29.67,SSW,208,6.0,6.0,72,0.00,,,0.33,299,Wunderground v.1.15,2013-05-21 20:01:00,
2013-05-21 15:02:00,67.7,58.3,29.67,SSW,209,6.0,6.0,72,0.00,,,0.33,299,Wunderground v.1.15,2013-05-21 20:02:00,
2013-05-21 15:04:00,67.8,58.8,29.67,SW,223,5.0,6.0,73,0.00,,,0.33,461,Wunderground v.1.15,2013-05-21 20:04:00,
2013-05-21 15:05:00,67.9,58.5,29.67,South,171,5.0,6.0,72,0.00,,,0.33,520,Wunderground v.1.15,2013-05-21 20:05:00,
2013-05-21 15:07:00,68.3,58.9,29.67,SSW,202,5.0,6.0,72,0.00,,,0.33,585,Wunderground v.1.15,2013-05-21 20:07:00,
2013-05-21 15:12:00,68.5,58.7,29.67,SSE,153,4.0,9.0,71,0.00,,,0.33,478,Wunderground v.1.15,2013-05-21 20:12:00,
2013-05-21 15:13:00,68.6,59.2,29.67,SSW,207,4.0,9.0,72,0.00,,,0.33,415,Wunderground v.1.15,2013-05-21 20:13:00,
2013-05-21 15:14:00,68.6,58.8,29.67,South,179,4.0,9.0,71,0.00,,,0.33,381,Wunderground v.1.15,2013-05-21 20:14:00,
2013-05-21 15:16:00,68.7,58.9,29.67,SSW,211,5.0,9.0,71,0.00,,,0.33,329,Wunderground v.1.15,2013-05-21 20:16:00,
2013-05-21 15:19:00,68.7,58.9,29.66,SSE,163,5.0,9.0,71,0.00,,,0.33,385,Wunderground v.1.15,2013-05-21 20:19:00,
2013-05-21 15:20:00,68.7,58.5,29.66,SSW,212,5.0,5.0,70,0.00,,,0.33,401,Wunderground v.1.15,2013-05-21 20:20:00,
2013-05-21 15:21:00,68.7,58.9,29.66,SW,221,5.0,5.0,71,0.00,,,0.33,415,Wunderground v.1.15,2013-05-21 20:21:00,
2013-05-21 15:26:00,68.8,59.0,29.66,SSE,167,5.0,8.0,71,0.00,,,0.33,350,Wunderground v.1.15,2013-05-21 20:26:00,
2013-05-21 15:27:00,68.8,59.0,29.66,SSW,213,5.0,8.0,71,0.00,,,0.33,343,Wunderground v.1.15,2013-05-21 20:27:00,
2013-05-21 15:28:00,68.8,58.2,29.66,SW,224,5.0,9.0,69,0.00,,,0.33,336,Wunderground v.1.15,2013-05-21 20:28:00,
2013-05-21 15:33:00,68.8,59.0,29.66,SSW,200,5.0,7.0,71,0.00,,,0.33,346,Wunderground v.1.15,2013-05-21 20:33:00,
2013-05-21 15:34:00,68.9,58.3,29.66,SSW,193,6.0,7.0,69,0.00,,,0.33,350,Wunderground v.1.15,2013-05-21 20:34:00,
2013-05-21 15:35:00,68.9,58.3,29.66,SW,216,6.0,7.0,69,0.00,,,0.33,362,Wunderground v.1.15,2013-05-21 20:35:00,
2013-05-21 15:36:00,68.8,58.2,29.66,SSW,208,6.0,7.0,69,0.00,,,0.33,373,Wunderground v.1.15,2013-05-21 20:36:00,
2013-05-21 15:40:00,68.8,58.2,29.66,SSW,196,5.0,5.0,69,0.00,,,0.33,425,Wunderground v.1.15,2013-05-21 20:40:00,
2013-05-21 15:42:00,68.9,58.3,29.66,SW,214,5.0,10.0,69,0.00,,,0.33,345,Wunderground v.1.15,2013-05-21 20:42:00,
2013-05-21 15:44:00,68.8,58.2,29.66,SW,217,5.0,10.0,69,0.00,,,0.33,323,Wunderground v.1.15,2013-05-21 20:44:00,
2013-05-21 15:45:00,68.7,58.1,29.66,SSW,201,5.0,10.0,69,0.00,,,0.33,329,Wunderground v.1.15,2013-05-21 20:45:00,
2013-05-21 15:46:00,68.7,58.1,29.66,SW,214,5.0,10.0,69,0.00,,,0.33,320,Wunderground v.1.15,2013-05-21 20:46:00,
2013-05-21 15:50:00,68.7,58.9,29.66,SSE,163,5.0,5.0,71,0.00,,,0.33,346,Wunderground v.1.15,2013-05-21 20:50:00,
2013-05-21 15:52:00,68.9,59.1,29.66,South,190,5.0,5.0,71,0.00,,,0.33,436,Wunderground v.1.15,2013-05-21 20:52:00,
2013-05-21 15:53:00,68.8,58.2,29.67,SSW,200,5.0,5.0,69,0.00,,,0.33,308,Wunderground v.1.15,2013-05-21 20:53:00,
2013-05-21 15:54:00,68.8,58.6,29.67,SSW,192,5.0,5.0,70,0.00,,,0.33,308,Wunderground v.1.15,2013-05-21 20:54:00,
2013-05-21 15:56:00,68.7,58.5,29.66,South,182,4.0,5.0,70,0.00,,,0.33,260,Wunderground v.1.15,2013-05-21 20:56:00,
2013-05-21 15:58:00,68.5,58.3,29.66,South,184,4.0,5.0,70,0.00,,,0.33,250,Wunderground v.1.15,2013-05-21 20:58:00,
2013-05-21 16:01:00,68.6,58.8,29.66,South,190,4.0,4.0,71,0.00,,,0.33,452,Wunderground v.1.15,2013-05-21 21:01:00,
2013-05-21 16:02:00,68.9,59.1,29.66,SSW,194,4.0,4.0,71,0.00,,,0.33,793,Wunderground v.1.15,2013-05-21 21:02:00,
2013-05-21 16:03:00,69.5,59.3,29.66,SSW,194,3.0,4.0,70,0.00,,,0.33,793,Wunderground v.1.15,2013-05-21 21:03:00,
2013-05-21 16:07:00,69.8,59.2,29.66,SW,222,2.0,4.0,69,0.00,,,0.33,800,Wunderground v.1.15,2013-05-21 21:07:00,
2013-05-21 16:08:00,69.7,58.3,29.66,SSW,212,3.0,4.0,67,0.00,,,0.33,304,Wunderground v.1.15,2013-05-21 21:08:00,
2013-05-21 16:09:00,69.7,58.3,29.67,SSW,212,3.0,4.0,67,0.00,,,0.33,304,Wunderground v.1.15,2013-05-21 21:09:00,
2013-05-21 16:10:00,69.8,59.2,29.67,SSW,195,2.0,6.0,69,0.00,,,0.33,851,Wunderground v.1.15,2013-05-21 21:10:00,
2013-05-21 16:12:00,70.0,58.5,29.66,SSW,207,3.0,6.0,67,0.00,,,0.33,858,Wunderground v.1.15,2013-05-21 21:12:00,
2013-05-21 16:13:00,70.0,58.5,29.67,SW,228,3.0,10.0,67,0.00,,,0.33,225,Wunderground v.1.15,2013-05-21 21:13:00,
2013-05-21 16:15:00,69.6,57.3,29.67,WSW,244,4.0,10.0,65,0.00,,,0.33,213,Wunderground v.1.15,2013-05-21 21:15:00,
2013-05-21 16:16:00,69.5,57.6,29.67,SSW,199,4.0,10.0,66,0.00,,,0.33,218,Wunderground v.1.15,2013-05-21 21:16:00,
2013-05-21 16:18:00,69.2,57.4,29.66,SSW,209,5.0,10.0,66,0.00,,,0.33,234,Wunderground v.1.15,2013-05-21 21:18:00,
2013-05-21 16:19:00,69.1,57.3,29.66,SW,219,5.0,10.0,66,0.00,,,0.33,216,Wunderground v.1.15,2013-05-21 21:19:00,
2013-05-21 16:22:00,68.9,57.5,29.67,SSW,196,6.0,6.0,67,0.00,,,0.33,195,Wunderground v.1.15,2013-05-21 21:22:00,
2013-05-21 16:23:00,68.9,57.5,29.67,SW,217,5.0,6.0,67,0.00,,,0.33,213,Wunderground v.1.15,2013-05-21 21:23:00,
2013-05-21 16:27:00,68.9,57.9,29.67,SSW,212,4.0,6.0,68,0.00,,,0.33,276,Wunderground v.1.15,2013-05-21 21:27:00,
2013-05-21 16:29:00,69.0,58.0,29.67,SSW,196,3.0,6.0,68,0.00,,,0.33,276,Wunderground v.1.15,2013-05-21 21:29:00,
2013-05-21 16:30:00,69.1,58.1,29.67,SSW,207,3.0,5.0,68,0.00,,,0.33,851,Wunderground v.1.15,2013-05-21 21:30:00,
2013-05-21 16:32:00,69.2,57.8,29.67,South,183,4.0,5.0,67,0.00,,,0.33,306,Wunderground v.1.15,2013-05-21 21:32:00,
2013-05-21 16:34:00,69.1,57.7,29.67,SSE,168,3.0,5.0,67,0.00,,,0.33,311,Wunderground v.1.15,2013-05-21 21:34:00,
2013-05-21 16:36:00,69.1,58.1,29.67,South,183,4.0,5.0,68,0.00,,,0.33,239,Wunderground v.1.15,2013-05-21 21:36:00,
2013-05-21 16:37:00,69.1,58.1,29.67,South,173,4.0,5.0,68,0.00,,,0.33,223,Wunderground v.1.15,2013-05-21 21:37:00,
2013-05-21 16:39:00,69.0,58.4,29.67,South,173,3.0,5.0,69,0.00,,,0.33,199,Wunderground v.1.15,2013-05-21 21:39:00,
2013-05-21 16:40:00,68.9,57.9,29.67,SSW,197,3.0,3.0,68,0.00,,,0.33,188,Wunderground v.1.15,2013-05-21 21:40:00,
2013-05-21 16:41:00,68.9,57.9,29.67,SSW,197,3.0,3.0,68,0.00,,,0.33,169,Wunderground v.1.15,2013-05-21 21:41:00,
2013-05-21 16:44:00,68.7,58.1,29.67,South,189,2.0,5.0,69,0.00,,,0.33,149,Wunderground v.1.15,2013-05-21 21:44:00,
2013-05-21 16:46:00,68.8,58.2,29.67,South,172,2.0,5.0,69,0.00,,,0.33,142,Wunderground v.1.15,2013-05-21 21:46:00,
2013-05-21 16:47:00,68.7,57.7,29.67,South,188,2.0,5.0,68,0.00,,,0.33,146,Wunderground v.1.15,2013-05-21 21:47:00,
2013-05-21 16:49:00,68.6,58.0,29.67,SSW,199,1.0,5.0,69,0.00,,,0.33,169,Wunderground v.1.15,2013-05-21 21:49:00,
2013-05-21 16:53:00,68.6,57.6,29.68,South,177,3.0,4.0,68,0.00,,,0.33,160,Wunderground v.1.15,2013-05-21 21:53:00,
2013-05-21 16:54:00,68.6,57.6,29.68,South,181,3.0,4.0,68,0.00,,,0.33,153,Wunderground v.1.15,2013-05-21 21:54:00,
2013-05-21 16:55:00,68.5,57.5,29.68,South,179,3.0,4.0,68,0.00,,,0.33,146,Wunderground v.1.15,2013-05-21 21:55:00,
2013-05-21 16:58:00,68.4,57.8,29.68,South,175,4.0,5.0,69,0.00,,,0.33,169,Wunderground v.1.15,2013-05-21 21:58:00,
2013-05-21 16:59:00,68.4,57.4,29.68,SW,221,4.0,9.0,68,0.00,,,0.33,197,Wunderground v.1.15,2013-05-21 21:59:00,
2013-05-21 17:01:00,68.4,57.4,29.68,SW,216,4.0,6.0,68,0.00,,,0.33,283,Wunderground v.1.15,2013-05-21 22:01:00,
2013-05-21 17:02:00,68.4,57.4,29.68,SW,217,4.0,6.0,68,0.00,,,0.33,283,Wunderground v.1.15,2013-05-21 22:02:00,
2013-05-21 17:04:00,68.6,57.6,29.67,SSW,201,4.0,6.0,68,0.00,,,0.33,330,Wunderground v.1.15,2013-05-21 22:04:00,
2013-05-21 17:06:00,68.8,57.8,29.67,South,182,4.0,6.0,68,0.00,,,0.33,269,Wunderground v.1.15,2013-05-21 22:06:00,
2013-05-21 17:07:00,68.8,57.8,29.67,SSW,197,4.0,6.0,68,0.00,,,0.33,262,Wunderground v.1.15,2013-05-21 22:07:00,
2013-05-21 17:08:00,68.8,57.8,29.67,South,172,4.0,6.0,68,0.00,,,0.33,272,Wunderground v.1.15,2013-05-21 22:08:00,
2013-05-21 17:11:00,68.7,57.3,29.67,South,188,4.0,6.0,67,0.00,,,0.33,274,Wunderground v.1.15,2013-05-21 22:11:00,
2013-05-21 17:13:00,68.6,57.6,29.67,SSW,196,4.0,7.0,68,0.00,,,0.33,250,Wunderground v.1.15,2013-05-21 22:13:00,
2013-05-21 17:14:00,68.5,57.5,29.67,SW,218,4.0,7.0,68,0.00,,,0.33,239,Wunderground v.1.15,2013-05-21 22:14:00,
2013-05-21 17:16:00,68.5,57.1,29.67,SSW,213,5.0,7.0,67,0.00,,,0.33,232,Wunderground v.1.15,2013-05-21 22:16:00,
2013-05-21 17:19:00,68.4,57.4,29.67,South,187,5.0,7.0,68,0.00,,,0.33,199,Wunderground v.1.15,2013-05-21 22:19:00,
2013-05-21 17:21:00,68.3,56.9,29.67,SSW,212,5.0,7.0,67,0.00,,,0.33,179,Wunderground v.1.15,2013-05-21 22:21:00,
2013-05-21 17:22:00,68.3,56.9,29.67,WSW,246,5.0,9.0,67,0.00,,,0.33,176,Wunderground v.1.15,2013-05-21 22:22:00,
2013-05-21 17:23:00,68.3,56.9,29.67,SW,219,5.0,9.0,67,0.00,,,0.33,169,Wunderground v.1.15,2013-05-21 22:23:00,
2013-05-21 17:24:00,68.3,57.3,29.67,SW,219,5.0,9.0,68,0.00,,,0.33,158,Wunderground v.1.15,2013-05-21 22:24:00,
2013-05-21 17:27:00,68.2,56.8,29.68,SSW,194,5.0,9.0,67,0.00,,,0.33,137,Wunderground v.1.15,2013-05-21 22:27:00,
2013-05-21 17:28:00,68.2,57.2,29.68,WSW,239,5.0,9.0,68,0.00,,,0.33,118,Wunderground v.1.15,2013-05-21 22:28:00,
2013-05-21 17:29:00,68.2,57.2,29.68,WSW,238,5.0,9.0,68,0.00,,,0.33,107,Wunderground v.1.15,2013-05-21 22:29:00,
2013-05-21 17:30:00,68.2,57.2,29.68,SW,221,5.0,5.0,68,0.00,,,0.33,98,Wunderground v.1.15,2013-05-21 22:30:00,
2013-05-21 17:32:00,68.1,57.5,29.68,SE,144,4.0,5.0,69,0.00,,,0.33,83,Wunderground v.1.15,2013-05-21 22:32:00,
2013-05-21 17:35:00,68.0,57.4,29.68,SSW,192,3.0,5.0,69,0.00,,,0.33,69,Wunderground v.1.15,2013-05-21 22:35:00,
2013-05-21 17:36:00,68.0,57.4,29.68,SSW,210,3.0,5.0,69,0.00,,,0.33,67,Wunderground v.1.15,2013-05-21 22:36:00,
2013-05-21 17:39:00,67.9,56.9,29.68,SSW,198,3.0,5.0,68,0.00,,,0.33,54,Wunderground v.1.15,2013-05-21 22:39:00,
2013-05-21 17:41:00,67.8,57.3,29.68,SSW,198,3.0,3.0,69,0.00,,,0.33,47,Wunderground v.1.15,2013-05-21 22:41:00,
2013-05-21 17:42:00,67.7,57.2,29.68,WSW,242,3.0,4.0,69,0.00,,,0.33,46,Wunderground v.1.15,2013-05-21 22:42:00,
2013-05-21 17:45:00,67.6,57.1,29.68,SSW,209,3.0,5.0,69,0.00,,,0.33,42,Wunderground v.1.15,2013-05-21 22:45:00,
2013-05-21 17:47:00,67.5,57.0,29.68,SSW,194,3.0,5.0,69,0.00,,,0.33,44,Wunderground v.1.15,2013-05-21 22:47:00,
2013-05-21 17:48:00,67.5,57.0,29.68,SSW,195,3.0,6.0,69,0.00,,,0.33,46,Wunderground v.1.15,2013-05-21 22:48:00,
2013-05-21 17:50:00,67.4,56.9,29.68,SW,217,3.0,6.0,69,0.00,,,0.33,54,Wunderground v.1.15,2013-05-21 22:50:00,
2013-05-21 17:51:00,67.4,56.9,29.68,South,183,3.0,6.0,69,0.00,,,0.33,60,Wunderground v.1.15,2013-05-21 22:51:00,
2013-05-21 17:52:00,67.4,56.9,29.68,SSW,192,3.0,6.0,69,0.00,,,0.33,79,Wunderground v.1.15,2013-05-21 22:52:00,
2013-05-21 17:53:00,67.4,56.9,29.68,South,190,3.0,6.0,69,0.00,,,0.33,95,Wunderground v.1.15,2013-05-21 22:53:00,
2013-05-21 17:56:00,67.3,57.2,29.68,South,190,2.0,6.0,70,0.00,,,0.33,125,Wunderground v.1.15,2013-05-21 22:56:00,
2013-05-21 17:57:00,67.3,57.2,29.68,SSW,211,2.0,6.0,70,0.00,,,0.33,125,Wunderground v.1.15,2013-05-21 22:57:00,
2013-05-21 18:01:00,67.3,57.2,29.68,SSW,194,2.0,2.0,70,0.00,,,0.33,98,Wunderground v.1.15,2013-05-21 23:01:00,
2013-05-21 18:02:00,67.4,57.3,29.68,SSW,194,1.0,2.0,70,0.00,,,0.33,93,Wunderground v.1.15,2013-05-21 23:02:00,
2013-05-21 18:03:00,67.4,57.3,29.68,SSW,194,1.0,2.0,70,0.00,,,0.33,88,Wunderground v.1.15,2013-05-21 23:03:00,
2013-05-21 18:07:00,67.3,57.2,29.68,SSW,195,1.0,3.0,70,0.00,,,0.33,104,Wunderground v.1.15,2013-05-21 23:07:00,
2013-05-21 18:09:00,67.3,57.2,29.68,SSW,195,1.0,3.0,70,0.00,,,0.33,123,Wunderground v.1.15,2013-05-21 23:09:00,
2013-05-21 18:10:00,67.3,57.2,29.67,SSW,193,1.0,1.0,70,0.00,,,0.33,127,Wunderground v.1.15,2013-05-21 23:10:00,
2013-05-21 18:13:00,67.3,57.2,29.68,SSW,193,1.0,4.0,70,0.00,,,0.33,116,Wunderground v.1.15,2013-05-21 23:13:00,
2013-05-21 18:16:00,67.4,57.3,29.68,SSW,193,1.0,4.0,70,0.00,,,0.33,113,Wunderground v.1.15,2013-05-21 23:16:00,
2013-05-21 18:17:00,67.4,57.3,29.68,South,191,1.0,4.0,70,0.00,,,0.33,113,Wunderground v.1.15,2013-05-21 23:17:00,
2013-05-21 18:18:00,67.4,57.3,29.68,SSW,192,1.0,4.0,70,0.00,,,0.33,109,Wunderground v.1.15,2013-05-21 23:18:00,
2013-05-21 18:20:00,67.4,57.7,29.68,SSW,192,1.0,1.0,71,0.00,,,0.33,97,Wunderground v.1.15,2013-05-21 23:20:00,
2013-05-21 18:23:00,67.4,57.3,29.68,SSW,192,1.0,1.0,70,0.00,,,0.33,74,Wunderground v.1.15,2013-05-21 23:23:00,
2013-05-21 18:26:00,67.3,57.6,29.67,SSW,194,1.0,2.0,71,0.00,,,0.33,62,Wunderground v.1.15,2013-05-21 23:26:00,
2013-05-21 18:28:00,67.3,57.2,29.67,SSW,194,1.0,3.0,70,0.00,,,0.33,56,Wunderground v.1.15,2013-05-21 23:28:00,
2013-05-21 18:31:00,67.1,57.0,29.67,SSW,194,1.0,1.0,70,0.00,,,0.33,47,Wunderground v.1.15,2013-05-21 23:31:00,
2013-05-21 18:34:00,67.1,57.4,29.67,SSW,194,1.0,2.0,71,0.00,,,0.33,39,Wunderground v.1.15,2013-05-21 23:34:00,
2013-05-21 18:36:00,67.0,57.3,29.68,SSW,194,1.0,2.0,71,0.00,,,0.33,35,Wunderground v.1.15,2013-05-21 23:36:00,
2013-05-21 18:37:00,67.0,57.3,29.67,SSW,194,1.0,2.0,71,0.00,,,0.33,33,Wunderground v.1.15,2013-05-21 23:37:00,
2013-05-21 18:39:00,67.0,57.7,29.68,SSW,194,0.0,2.0,72,0.00,,,0.33,33,Wunderground v.1.15,2013-05-21 23:39:00,
2013-05-21 18:42:00,66.9,58.0,29.68,SSW,194,1.0,1.0,73,0.00,,,0.33,32,Wunderground v.1.15,2013-05-21 23:42:00,
2013-05-21 18:43:00,66.8,57.9,29.68,SW,219,1.0,1.0,73,0.00,,,0.33,30,Wunderground v.1.15,2013-05-21 23:43:00,
2013-05-21 18:45:00,66.7,57.4,29.68,WSW,239,1.0,5.0,72,0.00,,,0.33,26,Wunderground v.1.15,2013-05-21 23:45:00,
2013-05-21 18:46:00,66.6,57.3,29.68,WSW,242,1.0,5.0,72,0.00,,,0.33,26,Wunderground v.1.15,2013-05-21 23:46:00,
2013-05-21 18:47:00,66.6,57.3,29.68,SW,215,1.0,5.0,72,0.00,,,0.33,25,Wunderground v.1.15,2013-05-21 23:47:00,
2013-05-21 18:48:00,66.5,57.2,29.68,SW,227,2.0,5.0,72,0.00,,,0.33,23,Wunderground v.1.15,2013-05-21 23:48:00,
2013-05-21 18:49:00,66.5,57.2,29.68,SW,227,2.0,5.0,72,0.00,,,0.33,23,Wunderground v.1.15,2013-05-21 23:49:00,
2013-05-21 18:51:00,66.5,57.2,29.68,SW,227,2.0,2.0,72,0.00,,,0.33,21,Wunderground v.1.15,2013-05-21 23:51:00,
2013-05-21 18:53:00,66.4,57.5,29.68,SW,227,2.0,2.0,73,0.00,,,0.33,19,Wunderground v.1.15,2013-05-21 23:53:00,
2013-05-21 18:57:00,66.3,57.0,29.68,SW,227,1.0,2.0,72,0.00,,,0.33,16,Wunderground v.1.15,2013-05-21 23:57:00,
2013-05-21 18:58:00,66.3,57.0,29.68,SW,227,1.0,2.0,72,0.00,,,0.33,14,Wunderground v.1.15,2013-05-21 23:58:00,
2013-05-21 19:01:00,66.3,57.4,29.68,SW,227,0.0,0.0,73,0.00,,,0.33,12,Wunderground v.1.15,2013-05-22 00:01:00,
2013-05-21 19:02:00,66.3,57.4,29.68,SW,227,0.0,0.0,73,0.00,,,0.33,12,Wunderground v.1.15,2013-05-22 00:02:00,
2013-05-21 19:03:00,66.2,57.7,29.68,SW,227,0.0,0.0,74,0.00,,,0.33,12,Wunderground v.1.15,2013-05-22 00:03:00,
2013-05-21 19:04:00,66.2,57.7,29.68,SW,227,0.0,0.0,74,0.00,,,0.33,12,Wunderground v.1.15,2013-05-22 00:04:00,
2013-05-21 19:07:00,66.0,57.1,29.68,SW,227,0.0,1.0,73,0.00,,,0.33,14,Wunderground v.1.15,2013-05-22 00:07:00,
2013-05-21 19:10:00,66.1,57.2,29.68,SW,227,0.0,0.0,73,0.00,,,0.33,14,Wunderground v.1.15,2013-05-22 00:10:00,
2013-05-21 19:11:00,66.1,57.6,29.68,SW,227,0.0,0.0,74,0.00,,,0.33,14,Wunderground v.1.15,2013-05-22 00:11:00,
2013-05-21 19:12:00,66.1,57.6,29.68,SW,227,0.0,0.0,74,0.00,,,0.33,14,Wunderground v.1.15,2013-05-22 00:12:00,
2013-05-21 19:15:00,65.9,57.0,29.68,SW,227,0.0,0.0,73,0.00,,,0.33,14,Wunderground v.1.15,2013-05-22 00:15:00,
2013-05-21 19:16:00,65.9,57.0,29.68,SW,227,0.0,1.0,73,0.00,,,0.33,14,Wunderground v.1.15,2013-05-22 00:16:00,
2013-05-21 19:21:00,65.9,56.6,29.68,SW,227,0.0,1.0,72,0.00,,,0.33,11,Wunderground v.1.15,2013-05-22 00:21:00,
2013-05-21 19:22:00,65.9,56.6,29.68,SW,227,0.0,1.0,72,0.00,,,0.33,11,Wunderground v.1.15,2013-05-22 00:22:00,
2013-05-21 19:24:00,65.9,57.0,29.68,SW,227,0.0,1.0,73,0.00,,,0.33,9,Wunderground v.1.15,2013-05-22 00:24:00,
2013-05-21 19:26:00,65.8,57.3,29.68,SW,227,0.0,1.0,74,0.00,,,0.33,11,Wunderground v.1.15,2013-05-22 00:26:00,
2013-05-21 19:29:00,65.7,56.8,29.68,SW,227,0.0,1.0,73,0.00,,,0.33,11,Wunderground v.1.15,2013-05-22 00:29:00,
2013-05-21 19:30:00,65.6,56.7,29.69,SW,227,0.0,0.0,73,0.00,,,0.33,11,Wunderground v.1.15,2013-05-22 00:30:00,
2013-05-21 19:33:00,65.5,57.4,29.68,SW,227,0.0,0.0,75,0.00,,,0.33,9,Wunderground v.1.15,2013-05-22 00:33:00,
2013-05-21 19:34:00,65.5,57.4,29.68,SW,227,0.0,0.0,75,0.00,,,0.33,9,Wunderground v.1.15,2013-05-22 00:34:00,
2013-05-21 19:37:00,65.3,57.2,29.68,SW,227,0.0,0.0,75,0.00,,,0.33,7,Wunderground v.1.15,2013-05-22 00:37:00,
2013-05-21 19:39:00,65.2,57.1,29.68,SW,227,0.0,0.0,75,0.00,,,0.33,7,Wunderground v.1.15,2013-05-22 00:39:00,
2013-05-21 19:40:00,65.2,57.1,29.68,SW,227,0.0,0.0,75,0.00,,,0.33,7,Wunderground v.1.15,2013-05-22 00:40:00,
2013-05-21 19:42:00,65.1,56.6,29.69,SW,227,0.0,0.0,74,0.00,,,0.33,7,Wunderground v.1.15,2013-05-22 00:42:00,
2013-05-21 19:45:00,65.1,56.6,29.69,SW,227,0.0,0.0,74,0.00,,,0.33,7,Wunderground v.1.15,2013-05-22 00:45:00,
2013-05-21 19:46:00,65.1,57.0,29.69,SW,227,0.0,0.0,75,0.00,,,0.33,7,Wunderground v.1.15,2013-05-22 00:46:00,
2013-05-21 19:47:00,65.0,57.2,29.69,SW,227,0.0,0.0,76,0.00,,,0.33,7,Wunderground v.1.15,2013-05-22 00:47:00,
2013-05-21 19:48:00,64.9,57.2,29.69,SW,227,0.0,0.0,76,0.00,,,0.33,7,Wunderground v.1.15,2013-05-22 00:48:00,
2013-05-21 19:49:00,64.9,57.5,29.69,SW,227,0.0,0.0,77,0.00,,,0.33,7,Wunderground v.1.15,2013-05-22 00:49:00,
2013-05-21 19:51:00,64.8,57.4,29.69,SW,227,0.0,0.0,77,0.00,,,0.33,9,Wunderground v.1.15,2013-05-22 00:51:00,
2013-05-21 19:54:00,64.6,57.2,29.70,SW,227,0.0,0.0,77,0.00,,,0.33,9,Wunderground v.1.15,2013-05-22 00:54:00,
2013-05-21 19:55:00,64.5,57.1,29.69,SW,227,0.0,0.0,77,0.00,,,0.33,7,Wunderground v.1.15,2013-05-22 00:55:00,
2013-05-21 19:57:00,64.4,57.4,29.69,SW,227,0.0,0.0,78,0.00,,,0.33,7,Wunderground v.1.15,2013-05-22 00:57:00,
2013-05-21 19:59:00,64.4,57.7,29.69,SW,227,0.0,0.0,79,0.00,,,0.33,7,Wunderground v.1.15,2013-05-22 00:59:00,
2013-05-21 20:00:00,64.3,57.6,29.69,SW,227,0.0,0.0,79,0.00,,,0.33,7,Wunderground v.1.15,2013-05-22 01:00:00,
2013-05-21 20:02:00,64.3,57.6,29.70,SW,227,0.0,0.0,79,0.00,,,0.33,5,Wunderground v.1.15,2013-05-22 01:02:00,
2013-05-21 20:03:00,64.3,57.6,29.69,SW,227,0.0,0.0,79,0.00,,,0.33,5,Wunderground v.1.15,2013-05-22 01:03:00,
2013-05-21 20:05:00,64.2,57.5,29.70,SW,227,0.0,0.0,79,0.00,,,0.33,5,Wunderground v.1.15,2013-05-22 01:05:00,
2013-05-21 20:08:00,64.0,57.4,29.69,SW,227,0.0,0.0,79,0.00,,,0.33,5,Wunderground v.1.15,2013-05-22 01:08:00,
2013-05-21 20:10:00,63.9,57.3,29.69,SW,227,0.0,0.0,79,0.00,,,0.33,5,Wunderground v.1.15,2013-05-22 01:10:00,
2013-05-21 20:12:00,63.8,57.2,29.69,SW,227,0.0,0.0,79,0.00,,,0.33,5,Wunderground v.1.15,2013-05-22 01:12:00,
2013-05-21 20:14:00,63.8,57.5,29.70,SW,227,0.0,0.0,80,0.00,,,0.33,0,Wunderground v.1.15,2013-05-22 01:14:00,
2013-05-21 20:15:00,63.7,57.4,29.70,SW,227,0.0,0.0,80,0.00,,,0.33,0,Wunderground v.1.15,2013-05-22 01:15:00,
2013-05-21 20:17:00,63.7,57.4,29.70,SW,227,0.0,0.0,80,0.00,,,0.33,0,Wunderground v.1.15,2013-05-22 01:17:00,
2013-05-21 20:18:00,63.6,57.3,29.70,SW,227,0.0,0.0,80,0.00,,,0.33,0,Wunderground v.1.15,2013-05-22 01:18:00,
2013-05-21 20:21:00,63.5,57.6,29.70,SW,227,0.0,0.0,81,0.00,,,0.33,0,Wunderground v.1.15,2013-05-22 01:21:00,
2013-05-21 20:23:00,63.5,57.6,29.70,SW,227,0.0,0.0,81,0.00,,,0.33,0,Wunderground v.1.15,2013-05-22 01:23:00,
2013-05-21 20:26:00,63.4,57.5,29.70,SW,227,0.0,0.0,81,0.00,,,0.33,0,Wunderground v.1.15,2013-05-22 01:26:00,
2013-05-21 20:27:00,63.4,57.5,29.70,SW,227,0.0,0.0,81,0.00,,,0.33,0,Wunderground v.1.15,2013-05-22 01:27:00,
2013-05-21 20:29:00,63.4,57.8,29.70,SW,227,0.0,0.0,82,0.00,,,0.33,0,Wunderground v.1.15,2013-05-22 01:29:00,
2013-05-21 20:32:00,63.5,58.2,29.71,SW,227,0.0,0.0,83,0.00,,,0.33,0,Wunderground v.1.15,2013-05-22 01:32:00,
2013-05-21 20:33:00,63.5,58.2,29.71,SW,227,0.0,0.0,83,0.00,,,0.33,0,Wunderground v.1.15,2013-05-22 01:33:00,
2013-05-21 20:34:00,63.5,58.2,29.71,SW,227,0.0,0.0,83,0.00,,,0.33,0,Wunderground v.1.15,2013-05-22 01:34:00,
2013-05-21 20:35:00,63.4,58.1,29.71,SW,227,0.0,0.0,83,0.00,,,0.33,0,Wunderground v.1.15,2013-05-22 01:35:00,
2013-05-21 20:38:00,63.2,57.9,29.71,SW,227,0.0,0.0,83,0.00,,,0.33,0,Wunderground v.1.15,2013-05-22 01:38:00,
2013-05-21 20:39:00,63.2,57.9,29.71,SW,227,0.0,1.0,83,0.00,,,0.33,0,Wunderground v.1.15,2013-05-22 01:39:00,
2013-05-21 20:43:00,63.1,57.9,29.71,SW,227,0.0,1.0,83,0.00,,,0.33,0,Wunderground v.1.15,2013-05-22 01:43:00,
2013-05-21 20:45:00,62.9,58.0,29.71,SW,227,0.0,1.0,84,0.00,,,0.33,0,Wunderground v.1.15,2013-05-22 01:45:00,
2013-05-21 20:46:00,62.9,58.0,29.71,SW,227,0.0,1.0,84,0.00,,,0.33,0,Wunderground v.1.15,2013-05-22 01:46:00,
2013-05-21 20:47:00,62.9,58.0,29.71,SW,227,0.0,1.0,84,0.00,,,0.33,0,Wunderground v.1.15,2013-05-22 01:47:00,
2013-05-21 20:51:00,62.9,58.3,29.71,SW,227,0.0,0.0,85,0.00,,,0.33,0,Wunderground v.1.15,2013-05-22 01:51:00,
2013-05-21 20:53:00,62.7,58.1,29.71,SW,227,0.0,0.0,85,0.00,,,0.33,0,Wunderground v.1.15,2013-05-22 01:53:00,
2013-05-21 20:54:00,62.7,58.1,29.72,SW,227,0.0,0.0,85,0.00,,,0.33,0,Wunderground v.1.15,2013-05-22 01:54:00,
2013-05-21 20:58:00,62.4,58.2,29.71,SW,227,0.0,0.0,86,0.00,,,0.33,0,Wunderground v.1.15,2013-05-22 01:58:00,
2013-05-21 20:59:00,62.4,58.2,29.71,SW,227,0.0,0.0,86,0.00,,,0.33,0,Wunderground v.1.15,2013-05-22 01:59:00,
2013-05-21 21:00:00,62.4,58.2,29.71,SW,227,0.0,0.0,86,0.00,,,0.33,0,Wunderground v.1.15,2013-05-22 02:00:00,
2013-05-21 21:01:00,62.4,58.2,29.71,SW,227,0.0,0.0,86,0.00,,,0.33,0,Wunderground v.1.15,2013-05-22 02:01:00,
2013-05-21 21:04:00,62.4,58.2,29.71,SW,227,0.0,1.0,86,0.00,,,0.33,0,Wunderground v.1.15,2013-05-22 02:04:00,
2013-05-21 21:05:00,62.4,58.2,29.71,SW,227,0.0,1.0,86,0.00,,,0.33,0,Wunderground v.1.15,2013-05-22 02:05:00,
2013-05-21 21:06:00,62.4,58.2,29.71,SW,227,0.0,1.0,86,0.00,,,0.33,0,Wunderground v.1.15,2013-05-22 02:06:00,
2013-05-21 21:07:00,62.4,58.2,29.71,SW,227,0.0,1.0,86,0.00,,,0.33,0,Wunderground v.1.15,2013-05-22 02:07:00,
2013-05-21 21:10:00,62.3,58.1,29.71,SW,227,0.0,0.0,86,0.00,,,0.33,0,Wunderground v.1.15,2013-05-22 02:10:00,
2013-05-21 21:11:00,62.3,58.1,29.71,SW,227,0.0,0.0,86,0.00,,,0.33,0,Wunderground v.1.15,2013-05-22 02:11:00,
2013-05-21 21:12:00,62.2,58.0,29.71,SW,227,0.0,0.0,86,0.00,,,0.33,0,Wunderground v.1.15,2013-05-22 02:12:00,
2013-05-21 21:16:00,62.0,58.1,29.72,SW,227,0.0,0.0,87,0.00,,,0.33,0,Wunderground v.1.15,2013-05-22 02:16:00,
2013-05-21 21:18:00,61.9,58.0,29.72,SW,227,0.0,0.0,87,0.00,,,0.33,0,Wunderground v.1.15,2013-05-22 02:18:00,
2013-05-21 21:19:00,61.9,58.0,29.72,SW,227,0.0,0.0,87,0.00,,,0.33,0,Wunderground v.1.15,2013-05-22 02:19:00,
2013-05-21 21:20:00,61.8,57.9,29.72,SW,227,0.0,0.0,87,0.00,,,0.33,0,Wunderground v.1.15,2013-05-22 02:20:00,
2013-05-21 21:23:00,61.8,58.2,29.72,SW,227,0.0,0.0,88,0.00,,,0.33,0,Wunderground v.1.15,2013-05-22 02:23:00,
2013-05-21 21:24:00,61.9,58.3,29.72,SW,227,0.0,0.0,88,0.00,,,0.33,0,Wunderground v.1.15,2013-05-22 02:24:00,
2013-05-21 21:25:00,61.8,57.9,29.72,SW,227,0.0,0.0,87,0.00,,,0.33,0,Wunderground v.1.15,2013-05-22 02:25:00,
2013-05-21 21:30:00,61.7,57.8,29.72,SW,227,0.0,0.0,87,0.00,,,0.33,0,Wunderground v.1.15,2013-05-22 02:30:00,
2013-05-21 21:31:00,61.7,58.1,29.72,SW,227,0.0,0.0,88,0.00,,,0.33,0,Wunderground v.1.15,2013-05-22 02:31:00,
2013-05-21 21:32:00,61.7,57.8,29.72,SW,227,0.0,0.0,87,0.00,,,0.33,0,Wunderground v.1.15,2013-05-22 02:32:00,
2013-05-21 21:34:00,61.7,58.1,29.72,SW,227,0.0,0.0,88,0.00,,,0.33,0,Wunderground v.1.15,2013-05-22 02:34:00,
2013-05-21 21:35:00,61.7,58.1,29.72,SW,227,0.0,0.0,88,0.00,,,0.33,0,Wunderground v.1.15,2013-05-22 02:35:00,
2013-05-21 21:36:00,61.7,58.1,29.72,SW,227,0.0,0.0,88,0.00,,,0.33,0,Wunderground v.1.15,2013-05-22 02:36:00,
2013-05-21 21:37:00,61.7,58.1,29.72,SW,227,0.0,0.0,88,0.00,,,0.33,0,Wunderground v.1.15,2013-05-22 02:37:00,
2013-05-21 21:41:00,61.6,57.7,29.72,SW,227,0.0,0.0,87,0.00,,,0.33,0,Wunderground v.1.15,2013-05-22 02:41:00,
2013-05-21 21:42:00,61.5,57.6,29.72,SW,227,0.0,0.0,87,0.00,,,0.33,0,Wunderground v.1.15,2013-05-22 02:42:00,
2013-05-21 21:43:00,61.5,57.6,29.72,SW,227,0.0,0.0,87,0.00,,,0.33,0,Wunderground v.1.15,2013-05-22 02:43:00,
2013-05-21 21:45:00,61.5,57.9,29.72,SW,227,0.0,0.0,88,0.00,,,0.33,0,Wunderground v.1.15,2013-05-22 02:45:00,
2013-05-21 21:46:00,61.5,57.9,29.72,SW,227,0.0,0.0,88,0.00,,,0.33,0,Wunderground v.1.15,2013-05-22 02:46:00,
2013-05-21 21:47:00,61.4,57.8,29.72,SW,227,0.0,0.0,88,0.00,,,0.33,0,Wunderground v.1.15,2013-05-22 02:47:00,
2013-05-21 21:51:00,61.3,57.7,29.72,SW,227,0.0,0.0,88,0.00,,,0.33,0,Wunderground v.1.15,2013-05-22 02:51:00,
2013-05-21 21:52:00,61.3,57.7,29.72,SW,227,0.0,0.0,88,0.00,,,0.33,0,Wunderground v.1.15,2013-05-22 02:52:00,
2013-05-21 21:54:00,61.2,57.9,29.72,SW,227,0.0,0.0,89,0.00,,,0.33,0,Wunderground v.1.15,2013-05-22 02:54:00,
2013-05-21 21:56:00,61.1,57.8,29.72,SW,227,0.0,0.0,89,0.00,,,0.33,0,Wunderground v.1.15,2013-05-22 02:56:00,
2013-05-21 21:59:00,61.0,57.7,29.72,SW,227,0.0,0.0,89,0.00,,,0.33,0,Wunderground v.1.15,2013-05-22 02:59:00,
2013-05-21 22:00:00,61.0,57.7,29.72,SW,227,0.0,0.0,89,0.00,,,0.33,0,Wunderground v.1.15,2013-05-22 03:00:00,
2013-05-21 22:01:00,60.9,57.6,29.72,SW,227,0.0,0.0,89,0.00,,,0.33,0,Wunderground v.1.15,2013-05-22 03:01:00,
2013-05-21 22:04:00,60.8,57.5,29.72,SW,227,0.0,0.0,89,0.00,,,0.33,0,Wunderground v.1.15,2013-05-22 03:04:00,
2013-05-21 22:05:00,60.7,57.4,29.72,SW,227,0.0,0.0,89,0.00,,,0.33,0,Wunderground v.1.15,2013-05-22 03:05:00,
2013-05-21 22:07:00,60.6,57.3,29.72,SW,227,0.0,0.0,89,0.00,,,0.33,0,Wunderground v.1.15,2013-05-22 03:07:00,
2013-05-21 22:08:00,60.5,57.6,29.72,SW,227,0.0,0.0,90,0.00,,,0.33,0,Wunderground v.1.15,2013-05-22 03:08:00,
2013-05-21 22:11:00,60.5,57.6,29.72,SW,227,0.0,0.0,90,0.00,,,0.33,0,Wunderground v.1.15,2013-05-22 03:11:00,
2013-05-21 22:12:00,60.5,57.6,29.72,SW,227,0.0,0.0,90,0.00,,,0.33,0,Wunderground v.1.15,2013-05-22 03:12:00,
2013-05-21 22:13:00,60.4,57.1,29.72,SW,227,0.0,0.0,89,0.00,,,0.33,0,Wunderground v.1.15,2013-05-22 03:13:00,
2013-05-21 22:16:00,60.4,57.1,29.72,SW,227,0.0,0.0,89,0.00,,,0.33,0,Wunderground v.1.15,2013-05-22 03:16:00,
2013-05-21 22:18:00,60.3,57.0,29.71,SW,227,0.0,0.0,89,0.00,,,0.33,0,Wunderground v.1.15,2013-05-22 03:18:00,
2013-05-21 22:19:00,60.3,57.0,29.71,SW,227,0.0,0.0,89,0.00,,,0.33,0,Wunderground v.1.15,2013-05-22 03:19:00,
2013-05-21 22:22:00,60.1,57.2,29.71,SW,227,0.0,0.0,90,0.00,,,0.33,0,Wunderground v.1.15,2013-05-22 03:22:00,
2013-05-21 22:23:00,60.1,57.2,29.71,SW,227,0.0,0.0,90,0.00,,,0.33,0,Wunderground v.1.15,2013-05-22 03:23:00,
2013-05-21 22:24:00,60.0,57.1,29.71,SW,227,0.0,0.0,90,0.00,,,0.33,0,Wunderground v.1.15,2013-05-22 03:24:00,
2013-05-21 22:25:00,60.0,57.1,29.72,SW,227,0.0,0.0,90,0.00,,,0.33,0,Wunderground v.1.15,2013-05-22 03:25:00,
2013-05-21 22:29:00,59.9,57.0,29.71,SW,227,0.0,0.0,90,0.00,,,0.33,0,Wunderground v.1.15,2013-05-22 03:29:00,
2013-05-21 22:30:00,59.9,57.3,29.71,SW,227,0.0,0.0,91,0.00,,,0.33,0,Wunderground v.1.15,2013-05-22 03:30:00,
2013-05-21 22:31:00,59.9,57.0,29.71,SW,227,0.0,0.0,90,0.00,,,0.33,0,Wunderground v.1.15,2013-05-22 03:31:00,
2013-05-21 22:33:00,59.8,56.9,29.71,SW,227,0.0,0.0,90,0.00,,,0.33,0,Wunderground v.1.15,2013-05-22 03:33:00,
2013-05-21 22:34:00,59.8,57.2,29.71,SW,227,0.0,0.0,91,0.00,,,0.33,0,Wunderground v.1.15,2013-05-22 03:34:00,
2013-05-21 22:36:00,59.6,57.0,29.71,SW,227,0.0,0.0,91,0.00,,,0.33,0,Wunderground v.1.15,2013-05-22 03:36:00,
2013-05-21 22:39:00,59.3,56.7,29.71,SW,227,0.0,0.0,91,0.00,,,0.33,0,Wunderground v.1.15,2013-05-22 03:39:00,
2013-05-21 22:40:00,59.3,56.7,29.71,SW,227,0.0,0.0,91,0.00,,,0.33,0,Wunderground v.1.15,2013-05-22 03:40:00,
2013-05-21 22:41:00,59.2,56.6,29.71,SW,227,0.0,0.0,91,0.00,,,0.33,0,Wunderground v.1.15,2013-05-22 03:41:00,
2013-05-21 22:42:00,59.1,56.5,29.71,SW,227,0.0,0.0,91,0.00,,,0.33,0,Wunderground v.1.15,2013-05-22 03:42:00,
2013-05-21 22:46:00,58.9,56.6,29.70,SW,227,0.0,0.0,92,0.00,,,0.33,0,Wunderground v.1.15,2013-05-22 03:46:00,
2013-05-21 22:47:00,58.8,56.5,29.70,SW,227,0.0,0.0,92,0.00,,,0.33,0,Wunderground v.1.15,2013-05-22 03:47:00,
2013-05-21 22:50:00,58.5,55.9,29.70,SW,227,0.0,0.0,91,0.00,,,0.33,0,Wunderground v.1.15,2013-05-22 03:50:00,
2013-05-21 22:52:00,58.3,55.7,29.70,SW,227,0.0,0.0,91,0.00,,,0.33,0,Wunderground v.1.15,2013-05-22 03:52:00,
2013-05-21 22:53:00,58.2,55.9,29.70,SW,227,0.0,0.0,92,0.00,,,0.33,0,Wunderground v.1.15,2013-05-22 03:53:00,
2013-05-21 22:55:00,58.1,55.8,29.70,SW,227,0.0,0.0,92,0.00,,,0.33,0,Wunderground v.1.15,2013-05-22 03:55:00,
2013-05-21 22:57:00,58.0,55.7,29.70,SW,227,0.0,0.0,92,0.00,,,0.33,0,Wunderground v.1.15,2013-05-22 03:57:00,
2013-05-21 22:58:00,58.0,55.7,29.70,SW,227,0.0,0.0,92,0.00,,,0.33,0,Wunderground v.1.15,2013-05-22 03:58:00,
2013-05-21 23:01:00,57.9,55.9,29.70,SW,227,0.0,0.0,93,0.00,,,0.33,0,Wunderground v.1.15,2013-05-22 04:01:00,
2013-05-21 23:02:00,57.8,55.8,29.70,SW,227,0.0,0.0,93,0.00,,,0.33,0,Wunderground v.1.15,2013-05-22 04:02:00,
2013-05-21 23:03:00,57.8,55.8,29.70,SW,227,0.0,0.0,93,0.00,,,0.33,0,Wunderground v.1.15,2013-05-22 04:03:00,
2013-05-21 23:06:00,57.7,55.7,29.70,SW,227,0.0,0.0,93,0.00,,,0.33,0,Wunderground v.1.15,2013-05-22 04:06:00,
2013-05-21 23:07:00,57.7,55.7,29.70,SW,227,0.0,0.0,93,0.00,,,0.33,0,Wunderground v.1.15,2013-05-22 04:07:00,
2013-05-21 23:11:00,57.5,55.5,29.70,SW,227,0.0,0.0,93,0.00,,,0.33,0,Wunderground v.1.15,2013-05-22 04:11:00,
2013-05-21 23:12:00,57.5,55.5,29.70,SW,227,0.0,0.0,93,0.00,,,0.33,0,Wunderground v.1.15,2013-05-22 04:12:00,
2013-05-21 23:15:00,57.3,55.3,29.70,SW,227,0.0,0.0,93,0.00,,,0.33,0,Wunderground v.1.15,2013-05-22 04:15:00,
2013-05-21 23:16:00,57.2,55.2,29.70,SW,227,0.0,0.0,93,0.00,,,0.33,0,Wunderground v.1.15,2013-05-22 04:16:00,
2013-05-21 23:18:00,57.0,55.0,29.70,SW,227,0.0,0.0,93,0.00,,,0.33,0,Wunderground v.1.15,2013-05-22 04:18:00,
2013-05-21 23:21:00,56.5,54.5,29.70,SW,227,0.0,0.0,93,0.00,,,0.33,0,Wunderground v.1.15,2013-05-22 04:21:00,
2013-05-21 23:22:00,56.4,54.4,29.70,SW,227,0.0,0.0,93,0.00,,,0.33,0,Wunderground v.1.15,2013-05-22 04:22:00,
2013-05-21 23:25:00,56.1,54.1,29.70,SW,227,0.0,0.0,93,0.00,,,0.33,0,Wunderground v.1.15,2013-05-22 04:25:00,
2013-05-21 23:26:00,56.1,54.1,29.70,SW,227,0.0,0.0,93,0.00,,,0.33,0,Wunderground v.1.15,2013-05-22 04:26:00,
2013-05-21 23:28:00,56.0,54.0,29.70,SW,227,0.0,0.0,93,0.00,,,0.33,0,Wunderground v.1.15,2013-05-22 04:28:00,
2013-05-21 23:29:00,56.0,54.0,29.70,SW,227,0.0,0.0,93,0.00,,,0.33,0,Wunderground v.1.15,2013-05-22 04:29:00,
2013-05-21 23:32:00,55.8,53.8,29.70,SW,227,0.0,0.0,93,0.00,,,0.33,0,Wunderground v.1.15,2013-05-22 04:32:00,
2013-05-21 23:34:00,55.7,53.7,29.70,SW,227,0.0,0.0,93,0.00,,,0.33,0,Wunderground v.1.15,2013-05-22 04:34:00,
2013-05-21 23:35:00,55.7,54.0,29.70,SW,227,0.0,0.0,94,0.00,,,0.33,0,Wunderground v.1.15,2013-05-22 04:35:00,
2013-05-21 23:37:00,55.5,53.8,29.70,SW,227,0.0,0.0,94,0.00,,,0.33,0,Wunderground v.1.15,2013-05-22 04:37:00,
2013-05-21 23:40:00,55.4,53.7,29.70,SW,227,0.0,0.0,94,0.00,,,0.33,0,Wunderground v.1.15,2013-05-22 04:40:00,
2013-05-21 23:42:00,55.4,53.7,29.70,SW,227,0.0,0.0,94,0.00,,,0.33,0,Wunderground v.1.15,2013-05-22 04:42:00,
2013-05-21 23:44:00,55.3,53.6,29.70,SW,227,0.0,0.0,94,0.00,,,0.33,0,Wunderground v.1.15,2013-05-22 04:44:00,
2013-05-21 23:47:00,55.3,53.6,29.70,SW,227,0.0,0.0,94,0.00,,,0.33,0,Wunderground v.1.15,2013-05-22 04:47:00,
2013-05-21 23:48:00,55.3,53.6,29.70,SW,227,0.0,0.0,94,0.00,,,0.33,0,Wunderground v.1.15,2013-05-22 04:48:00,
2013-05-21 23:49:00,55.4,53.7,29.71,SW,227,0.0,0.0,94,0.00,,,0.33,0,Wunderground v.1.15,2013-05-22 04:49:00,
2013-05-21 23:50:00,55.4,53.7,29.71,SW,227,0.0,0.0,94,0.00,,,0.33,0,Wunderground v.1.15,2013-05-22 04:50:00,
2013-05-21 23:53:00,55.4,53.7,29.70,SW,227,0.0,0.0,94,0.00,,,0.33,0,Wunderground v.1.15,2013-05-22 04:53:00,
2013-05-21 23:56:00,55.4,53.7,29.70,SW,227,0.0,0.0,94,0.00,,,0.33,0,Wunderground v.1.15,2013-05-22 04:56:00,
2013-05-21 23:57:00,55.4,53.7,29.70,SW,227,0.0,0.0,94,0.00,,,0.33,0,Wunderground v.1.15,2013-05-22 04:57:00,
2013-05-21 23:58:00,55.4,53.7,29.70,SW,227,0.0,0.0,94,0.00,,,0.33,0,Wunderground v.1.15,2013-05-22 04:58:00,
2013-05-21 23:59:00,55.3,53.6,29.70,SW,227,0.0,0.0,94,0.00,,,0.33,0,Wunderground v.1.15,2013-05-22 04:59:00,